Time,TemperatureF,DewpointF,PressureIn,WindDirection,WindDirectionDegrees,WindSpeedMPH,WindSpeedGustMPH,Humidity,HourlyPrecipIn,Conditions,Clouds,dailyrainin,SoftwareType,DateUTC
2013-01-22 00:02:00,28.6,25.8,30.15,SSW,202,0.0,0.0,89,0.00,,CLR,0.00,VWS V14.00,2013-01-22 08:02:00,
2013-01-22 00:03:00,28.6,25.8,30.15,SW,225,0.0,0.0,89,0.00,,CLR,0.00,VWS V14.00,2013-01-22 08:03:00,
2013-01-22 00:07:00,28.6,25.8,30.15,SSE,158,0.0,0.0,89,0.00,,CLR,0.00,VWS V14.00,2013-01-22 08:07:00,
2013-01-22 00:08:00,28.6,25.8,30.15,East,90,0.0,0.0,89,0.00,,CLR,0.00,VWS V14.00,2013-01-22 08:08:00,
2013-01-22 00:12:00,28.6,25.8,30.12,ESE,112,0.0,0.0,89,0.00,,CLR,0.00,VWS V14.00,2013-01-22 08:12:00,
2013-01-22 00:13:00,28.4,25.9,30.12,ESE,112,0.0,0.0,90,0.00,,CLR,0.00,VWS V14.00,2013-01-22 08:13:00,
2013-01-22 00:17:00,28.4,25.9,30.12,SSE,158,0.0,0.0,90,0.00,,CLR,0.00,VWS V14.00,2013-01-22 08:17:00,
2013-01-22 00:18:00,28.4,25.9,30.12,SSE,158,0.0,0.0,90,0.00,,CLR,0.00,VWS V14.00,2013-01-22 08:18:00,
2013-01-22 00:22:00,28.4,25.9,30.15,WSW,248,0.0,0.0,90,0.00,,CLR,0.00,VWS V14.00,2013-01-22 08:22:00,
2013-01-22 00:23:00,28.4,25.9,30.15,WSW,248,0.0,0.0,90,0.00,,CLR,0.00,VWS V14.00,2013-01-22 08:23:00,
2013-01-22 00:27:00,28.2,25.7,30.15,SE,135,0.0,0.0,90,0.00,,CLR,0.00,VWS V14.00,2013-01-22 08:27:00,
2013-01-22 00:28:00,28.2,25.7,30.15,SE,135,0.0,0.0,90,0.00,,CLR,0.00,VWS V14.00,2013-01-22 08:28:00,
2013-01-22 00:32:00,28.4,25.9,30.15,WSW,248,0.0,0.0,90,0.00,,CLR,0.00,VWS V14.00,2013-01-22 08:32:00,
2013-01-22 00:33:00,28.4,25.9,30.15,WSW,248,0.0,0.0,90,0.00,,CLR,0.00,VWS V14.00,2013-01-22 08:33:00,
2013-01-22 00:37:00,28.6,26.0,30.15,ESE,112,0.0,0.9,90,0.00,,CLR,0.00,VWS V14.00,2013-01-22 08:37:00,
2013-01-22 00:38:00,28.6,26.0,30.15,ESE,112,0.0,0.9,90,0.00,,CLR,0.00,VWS V14.00,2013-01-22 08:38:00,
2013-01-22 00:39:00,28.6,26.0,30.15,ESE,112,0.0,0.9,90,0.00,,CLR,0.00,VWS V14.00,2013-01-22 08:39:00,
2013-01-22 00:42:00,28.6,26.0,30.15,East,90,0.0,0.9,90,0.00,,CLR,0.00,VWS V14.00,2013-01-22 08:42:00,
2013-01-22 00:43:00,28.4,25.9,30.15,East,90,0.0,0.9,90,0.00,,CLR,0.00,VWS V14.00,2013-01-22 08:43:00,
2013-01-22 00:44:00,28.4,25.9,30.15,East,90,0.0,0.9,90,0.00,,CLR,0.00,VWS V14.00,2013-01-22 08:44:00,
2013-01-22 00:47:00,28.4,25.9,30.15,ESE,112,0.0,0.9,90,0.00,,CLR,0.00,VWS V14.00,2013-01-22 08:47:00,
2013-01-22 00:48:00,28.6,26.0,30.15,ESE,112,0.0,0.9,90,0.00,,CLR,0.00,VWS V14.00,2013-01-22 08:48:00,
2013-01-22 00:49:00,28.6,26.0,30.15,ESE,112,0.0,0.9,90,0.00,,CLR,0.00,VWS V14.00,2013-01-22 08:49:00,
2013-01-22 00:52:00,28.4,25.9,30.15,ESE,112,0.0,0.9,90,0.00,,CLR,0.00,VWS V14.00,2013-01-22 08:52:00,
2013-01-22 00:53:00,28.2,25.7,30.15,ESE,112,0.0,0.0,90,0.00,,CLR,0.00,VWS V14.00,2013-01-22 08:53:00,
2013-01-22 00:54:00,28.2,25.7,30.15,SE,135,0.0,0.0,90,0.00,,CLR,0.00,VWS V14.00,2013-01-22 08:54:00,
2013-01-22 00:57:00,28.4,25.9,30.15,SSW,202,0.0,0.0,90,0.00,,CLR,0.00,VWS V14.00,2013-01-22 08:57:00,
2013-01-22 00:58:00,28.4,25.9,30.15,WSW,248,0.9,0.9,90,0.00,,CLR,0.00,VWS V14.00,2013-01-22 08:58:00,
2013-01-22 00:59:00,28.4,25.9,30.15,WSW,248,0.9,0.9,90,0.00,,CLR,0.00,VWS V14.00,2013-01-22 08:59:00,
2013-01-22 01:02:00,28.4,25.9,30.15,East,90,0.0,0.9,90,0.00,,CLR,0.00,VWS V14.00,2013-01-22 09:02:00,
2013-01-22 01:03:00,28.4,25.9,30.15,East,90,0.0,0.9,90,0.00,,CLR,0.00,VWS V14.00,2013-01-22 09:03:00,
2013-01-22 01:04:00,28.4,25.9,30.15,East,90,0.0,0.9,90,0.00,,CLR,0.00,VWS V14.00,2013-01-22 09:04:00,
2013-01-22 01:07:00,28.4,25.9,30.15,NNW,338,0.0,0.9,90,0.00,,CLR,0.00,VWS V14.00,2013-01-22 09:07:00,
2013-01-22 01:08:00,28.4,25.9,30.15,NNW,338,0.0,0.9,90,0.00,,CLR,0.00,VWS V14.00,2013-01-22 09:08:00,
2013-01-22 01:09:00,28.4,25.9,30.15,NNW,338,0.0,0.9,90,0.00,,CLR,0.00,VWS V14.00,2013-01-22 09:09:00,
2013-01-22 01:12:00,28.4,25.9,30.12,NNW,338,0.0,0.9,90,0.00,,CLR,0.00,VWS V14.00,2013-01-22 09:12:00,
2013-01-22 01:13:00,28.4,25.9,30.12,East,90,0.0,0.9,90,0.00,,CLR,0.00,VWS V14.00,2013-01-22 09:13:00,
2013-01-22 01:14:00,28.4,25.9,30.12,East,90,0.0,0.9,90,0.00,,CLR,0.00,VWS V14.00,2013-01-22 09:14:00,
2013-01-22 01:18:00,28.4,25.9,30.12,West,270,0.0,0.9,90,0.00,,CLR,0.00,VWS V14.00,2013-01-22 09:18:00,
2013-01-22 01:19:00,28.2,25.7,30.12,West,270,0.0,0.0,90,0.00,,CLR,0.00,VWS V14.00,2013-01-22 09:19:00,
2013-01-22 01:23:00,28.2,25.7,30.15,South,180,0.0,0.0,90,0.00,,CLR,0.00,VWS V14.00,2013-01-22 09:23:00,
2013-01-22 01:24:00,28.2,25.7,30.15,East,90,0.0,0.0,90,0.00,,CLR,0.00,VWS V14.00,2013-01-22 09:24:00,
2013-01-22 01:25:00,28.2,25.7,30.15,NNE,22,0.0,0.0,90,0.00,,CLR,0.00,VWS V14.00,2013-01-22 09:25:00,
2013-01-22 01:28:00,28.2,25.7,30.15,WNW,292,0.0,0.0,90,0.00,,CLR,0.00,VWS V14.00,2013-01-22 09:28:00,
2013-01-22 01:29:00,28.2,25.7,30.15,SSW,202,0.0,0.0,90,0.00,,CLR,0.00,VWS V14.00,2013-01-22 09:29:00,
2013-01-22 01:30:00,28.2,25.7,30.15,SSW,202,0.0,0.0,90,0.00,,CLR,0.00,VWS V14.00,2013-01-22 09:30:00,
2013-01-22 01:33:00,28.4,25.9,30.15,East,90,0.0,0.0,90,0.00,,CLR,0.00,VWS V14.00,2013-01-22 09:33:00,
2013-01-22 01:34:00,28.2,25.7,30.15,East,90,0.0,0.0,90,0.00,,CLR,0.00,VWS V14.00,2013-01-22 09:34:00,
2013-01-22 01:35:00,28.2,25.7,30.15,ESE,112,0.0,0.0,90,0.00,,CLR,0.00,VWS V14.00,2013-01-22 09:35:00,
2013-01-22 01:38:00,28.2,25.7,30.12,ESE,112,0.0,0.0,90,0.00,,CLR,0.00,VWS V14.00,2013-01-22 09:38:00,
2013-01-22 01:39:00,28.2,25.7,30.12,ESE,112,0.0,0.0,90,0.00,,CLR,0.00,VWS V14.00,2013-01-22 09:39:00,
2013-01-22 01:40:00,28.2,25.7,30.12,ESE,112,0.0,0.0,90,0.00,,CLR,0.00,VWS V14.00,2013-01-22 09:40:00,
2013-01-22 01:43:00,28.2,25.7,30.12,East,90,0.0,0.0,90,0.00,,CLR,0.00,VWS V14.00,2013-01-22 09:43:00,
2013-01-22 01:44:00,28.2,25.7,30.12,East,90,0.0,0.0,90,0.00,,CLR,0.00,VWS V14.00,2013-01-22 09:44:00,
2013-01-22 01:45:00,28.2,25.7,30.12,East,90,0.0,0.0,90,0.00,,CLR,0.00,VWS V14.00,2013-01-22 09:45:00,
2013-01-22 01:48:00,28.2,25.7,30.12,East,90,0.0,0.0,90,0.00,,CLR,0.00,VWS V14.00,2013-01-22 09:48:00,
2013-01-22 01:49:00,28.2,25.7,30.12,East,90,0.0,0.0,90,0.00,,CLR,0.00,VWS V14.00,2013-01-22 09:49:00,
2013-01-22 01:50:00,28.2,25.7,30.12,East,90,0.0,0.0,90,0.00,,CLR,0.00,VWS V14.00,2013-01-22 09:50:00,
2013-01-22 01:53:00,28.0,25.5,30.12,East,90,0.0,0.0,90,0.00,,CLR,0.00,VWS V14.00,2013-01-22 09:53:00,
2013-01-22 01:54:00,28.0,25.5,30.12,East,90,0.0,0.0,90,0.00,,CLR,0.00,VWS V14.00,2013-01-22 09:54:00,
2013-01-22 01:55:00,28.0,25.5,30.12,East,90,0.0,0.0,90,0.00,,CLR,0.00,VWS V14.00,2013-01-22 09:55:00,
2013-01-22 01:58:00,28.0,25.5,30.12,East,90,0.0,0.0,90,0.00,,CLR,0.00,VWS V14.00,2013-01-22 09:58:00,
2013-01-22 01:59:00,28.0,25.5,30.12,East,90,0.0,0.0,90,0.00,,CLR,0.00,VWS V14.00,2013-01-22 09:59:00,
2013-01-22 02:00:00,28.0,25.5,30.12,East,90,0.0,0.0,90,0.00,,CLR,0.00,VWS V14.00,2013-01-22 10:00:00,
2013-01-22 02:03:00,28.0,25.5,30.12,ESE,112,0.0,0.0,90,0.00,,CLR,0.00,VWS V14.00,2013-01-22 10:03:00,
2013-01-22 02:04:00,28.2,25.7,30.12,ESE,112,0.0,0.0,90,0.00,,CLR,0.00,VWS V14.00,2013-01-22 10:04:00,
2013-01-22 02:06:00,28.2,25.7,30.12,ESE,112,0.0,0.0,90,0.00,,CLR,0.00,VWS V14.00,2013-01-22 10:06:00,
2013-01-22 02:08:00,28.2,25.7,30.12,ESE,112,0.0,0.0,90,0.00,,CLR,0.00,VWS V14.00,2013-01-22 10:08:00,
2013-01-22 02:09:00,28.2,25.7,30.12,ESE,112,0.0,0.0,90,0.00,,CLR,0.00,VWS V14.00,2013-01-22 10:09:00,
2013-01-22 02:11:00,28.0,25.5,30.12,ESE,112,0.0,0.0,90,0.00,,CLR,0.00,VWS V14.00,2013-01-22 10:11:00,
2013-01-22 02:13:00,28.0,25.5,30.12,SSW,202,0.0,0.0,90,0.00,,CLR,0.00,VWS V14.00,2013-01-22 10:13:00,
2013-01-22 02:14:00,28.0,25.5,30.12,SSW,202,0.0,0.0,90,0.00,,CLR,0.00,VWS V14.00,2013-01-22 10:14:00,
2013-01-22 02:16:00,28.0,25.5,30.12,SSW,202,0.0,0.0,90,0.00,,CLR,0.00,VWS V14.00,2013-01-22 10:16:00,
2013-01-22 02:18:00,27.9,25.3,30.12,South,180,0.0,0.0,90,0.00,,CLR,0.00,VWS V14.00,2013-01-22 10:18:00,
2013-01-22 02:19:00,27.9,25.3,30.12,South,180,0.0,0.0,90,0.00,,CLR,0.00,VWS V14.00,2013-01-22 10:19:00,
2013-01-22 02:21:00,27.9,25.6,30.12,WSW,248,0.0,0.0,91,0.00,,CLR,0.00,VWS V14.00,2013-01-22 10:21:00,
2013-01-22 02:23:00,28.0,25.8,30.12,SE,135,0.0,0.0,91,0.00,,CLR,0.00,VWS V14.00,2013-01-22 10:23:00,
2013-01-22 02:24:00,28.0,25.8,30.12,WSW,248,0.0,0.0,91,0.00,,CLR,0.00,VWS V14.00,2013-01-22 10:24:00,
2013-01-22 02:26:00,28.0,25.8,30.12,WSW,248,0.0,0.0,91,0.00,,CLR,0.00,VWS V14.00,2013-01-22 10:26:00,
2013-01-22 02:29:00,28.0,25.5,30.12,WSW,248,0.0,0.0,90,0.00,,CLR,0.00,VWS V14.00,2013-01-22 10:29:00,
2013-01-22 02:31:00,28.0,25.5,30.12,WSW,248,0.0,0.0,90,0.00,,CLR,0.00,VWS V14.00,2013-01-22 10:31:00,
2013-01-22 02:34:00,28.0,25.5,30.12,East,90,1.1,2.0,90,0.00,,CLR,0.00,VWS V14.00,2013-01-22 10:34:00,
2013-01-22 02:36:00,27.9,25.6,30.12,ESE,112,0.0,2.0,91,0.00,,CLR,0.00,VWS V14.00,2013-01-22 10:36:00,
2013-01-22 02:39:00,27.9,25.6,30.12,ESE,112,0.0,2.0,91,0.00,,CLR,0.00,VWS V14.00,2013-01-22 10:39:00,
2013-01-22 02:41:00,27.9,25.6,30.12,East,90,0.0,2.0,91,0.00,,CLR,0.00,VWS V14.00,2013-01-22 10:41:00,
2013-01-22 02:44:00,27.9,25.6,30.12,East,90,0.0,2.0,91,0.00,,CLR,0.00,VWS V14.00,2013-01-22 10:44:00,
2013-01-22 02:45:00,28.0,25.8,30.12,ESE,112,0.0,2.0,91,0.00,,CLR,0.00,VWS V14.00,2013-01-22 10:45:00,
2013-01-22 02:46:00,28.0,25.8,30.12,East,90,2.0,2.0,91,0.00,,CLR,0.00,VWS V14.00,2013-01-22 10:46:00,
2013-01-22 02:49:00,28.0,25.8,30.12,East,90,0.0,2.0,91,0.00,,CLR,0.00,VWS V14.00,2013-01-22 10:49:00,
2013-01-22 02:50:00,28.0,25.8,30.12,East,90,0.0,2.0,91,0.00,,CLR,0.00,VWS V14.00,2013-01-22 10:50:00,
2013-01-22 02:51:00,28.0,25.8,30.12,East,90,0.0,2.0,91,0.00,,CLR,0.00,VWS V14.00,2013-01-22 10:51:00,
2013-01-22 02:54:00,27.9,25.3,30.12,East,90,2.2,2.2,90,0.00,,CLR,0.00,VWS V14.00,2013-01-22 10:54:00,
2013-01-22 02:55:00,27.7,25.1,30.12,SE,135,0.0,2.2,90,0.00,,CLR,0.00,VWS V14.00,2013-01-22 10:55:00,
2013-01-22 02:56:00,27.7,25.1,30.12,SE,135,0.0,2.2,90,0.00,,CLR,0.00,VWS V14.00,2013-01-22 10:56:00,
2013-01-22 02:59:00,27.7,25.1,30.12,SE,135,0.0,2.2,90,0.00,,CLR,0.00,VWS V14.00,2013-01-22 10:59:00,
2013-01-22 03:00:00,27.7,25.1,30.12,SE,135,0.0,2.2,90,0.00,,CLR,0.00,VWS V14.00,2013-01-22 11:00:00,
2013-01-22 03:01:00,27.7,25.1,30.12,SSE,158,0.0,2.2,90,0.00,,CLR,0.00,VWS V14.00,2013-01-22 11:01:00,
2013-01-22 03:04:00,27.7,25.1,30.12,SE,135,0.0,2.2,90,0.00,,CLR,0.00,VWS V14.00,2013-01-22 11:04:00,
2013-01-22 03:05:00,27.7,25.1,30.12,SE,135,0.0,2.2,90,0.00,,CLR,0.00,VWS V14.00,2013-01-22 11:05:00,
2013-01-22 03:06:00,27.7,25.1,30.12,SE,135,0.0,2.2,90,0.00,,CLR,0.00,VWS V14.00,2013-01-22 11:06:00,
2013-01-22 03:09:00,27.5,25.0,30.12,ESE,112,0.0,2.2,90,0.00,,CLR,0.00,VWS V14.00,2013-01-22 11:09:00,
2013-01-22 03:10:00,27.5,25.0,30.12,ESE,112,0.0,0.0,90,0.00,,CLR,0.00,VWS V14.00,2013-01-22 11:10:00,
2013-01-22 03:11:00,27.5,25.0,30.12,ESE,112,0.0,0.0,90,0.00,,CLR,0.00,VWS V14.00,2013-01-22 11:11:00,
2013-01-22 03:14:00,27.5,25.0,30.12,ESE,112,0.0,0.0,90,0.00,,CLR,0.00,VWS V14.00,2013-01-22 11:14:00,
2013-01-22 03:15:00,27.5,25.0,30.12,ESE,112,0.0,0.0,90,0.00,,CLR,0.00,VWS V14.00,2013-01-22 11:15:00,
2013-01-22 03:17:00,27.5,25.0,30.12,ESE,112,0.0,0.0,90,0.00,,CLR,0.00,VWS V14.00,2013-01-22 11:17:00,
2013-01-22 03:19:00,27.5,25.0,30.12,ESE,112,0.0,0.0,90,0.00,,CLR,0.00,VWS V14.00,2013-01-22 11:19:00,
2013-01-22 03:20:00,27.5,25.0,30.12,ESE,112,0.0,0.0,90,0.00,,CLR,0.00,VWS V14.00,2013-01-22 11:20:00,
2013-01-22 03:22:00,27.5,25.0,30.12,ESE,112,0.0,0.0,90,0.00,,CLR,0.00,VWS V14.00,2013-01-22 11:22:00,
2013-01-22 03:24:00,27.5,25.0,30.12,ESE,112,0.0,0.0,90,0.00,,CLR,0.00,VWS V14.00,2013-01-22 11:24:00,
2013-01-22 03:25:00,27.5,25.0,30.12,ESE,112,0.0,0.0,90,0.00,,CLR,0.00,VWS V14.00,2013-01-22 11:25:00,
2013-01-22 03:27:00,27.7,25.1,30.12,ESE,112,0.0,0.0,90,0.00,,CLR,0.00,VWS V14.00,2013-01-22 11:27:00,
2013-01-22 03:29:00,27.7,25.1,30.12,East,90,0.0,0.0,90,0.00,,CLR,0.00,VWS V14.00,2013-01-22 11:29:00,
2013-01-22 03:30:00,27.7,25.1,30.12,East,90,0.0,0.0,90,0.00,,CLR,0.00,VWS V14.00,2013-01-22 11:30:00,
2013-01-22 03:32:00,27.9,25.3,30.12,East,90,0.0,0.0,90,0.00,,CLR,0.00,VWS V14.00,2013-01-22 11:32:00,
2013-01-22 03:34:00,27.7,25.4,30.12,East,90,0.0,0.0,91,0.00,,CLR,0.00,VWS V14.00,2013-01-22 11:34:00,
2013-01-22 03:35:00,27.7,25.4,30.12,East,90,0.0,0.0,91,0.00,,CLR,0.00,VWS V14.00,2013-01-22 11:35:00,
2013-01-22 03:37:00,27.7,25.4,30.12,East,90,0.0,0.0,91,0.00,,CLR,0.00,VWS V14.00,2013-01-22 11:37:00,
2013-01-22 03:39:00,27.7,25.4,30.12,ESE,112,0.0,0.0,91,0.00,,CLR,0.00,VWS V14.00,2013-01-22 11:39:00,
2013-01-22 03:40:00,27.7,25.4,30.12,ESE,112,0.0,0.0,91,0.00,,CLR,0.00,VWS V14.00,2013-01-22 11:40:00,
2013-01-22 03:42:00,27.7,25.4,30.12,ESE,112,0.0,0.0,91,0.00,,CLR,0.00,VWS V14.00,2013-01-22 11:42:00,
2013-01-22 03:45:00,27.5,25.2,30.12,ESE,112,0.0,0.0,91,0.00,,CLR,0.00,VWS V14.00,2013-01-22 11:45:00,
2013-01-22 03:47:00,27.5,25.2,30.12,ESE,112,0.0,0.0,91,0.00,,CLR,0.00,VWS V14.00,2013-01-22 11:47:00,
2013-01-22 03:50:00,27.5,25.2,30.12,ESE,112,0.0,0.0,91,0.00,,CLR,0.00,VWS V14.00,2013-01-22 11:50:00,
2013-01-22 03:52:00,27.3,25.0,30.12,ESE,112,0.0,0.0,91,0.00,,CLR,0.00,VWS V14.00,2013-01-22 11:52:00,
2013-01-22 03:55:00,27.3,25.0,30.12,ESE,112,0.0,0.0,91,0.00,,CLR,0.00,VWS V14.00,2013-01-22 11:55:00,
2013-01-22 03:57:00,27.3,25.0,30.12,ESE,112,0.0,0.0,91,0.00,,CLR,0.00,VWS V14.00,2013-01-22 11:57:00,
2013-01-22 04:00:00,27.3,25.0,30.12,ESE,112,0.0,0.0,91,0.00,,CLR,0.00,VWS V14.00,2013-01-22 12:00:00,
2013-01-22 04:01:00,27.3,25.0,30.12,ESE,112,0.0,0.0,91,0.00,,CLR,0.00,VWS V14.00,2013-01-22 12:01:00,
2013-01-22 04:02:00,27.1,24.9,30.12,ESE,112,0.0,0.0,91,0.00,,CLR,0.00,VWS V14.00,2013-01-22 12:02:00,
2013-01-22 04:05:00,27.1,24.9,30.12,ESE,112,0.0,0.0,91,0.00,,CLR,0.00,VWS V14.00,2013-01-22 12:05:00,
2013-01-22 04:06:00,27.1,24.9,30.12,SE,135,0.0,0.0,91,0.00,,CLR,0.00,VWS V14.00,2013-01-22 12:06:00,
2013-01-22 04:07:00,27.3,25.0,30.12,ESE,112,0.0,0.0,91,0.00,,CLR,0.00,VWS V14.00,2013-01-22 12:07:00,
2013-01-22 04:10:00,27.3,25.0,30.12,ESE,112,0.0,0.0,91,0.00,,CLR,0.00,VWS V14.00,2013-01-22 12:10:00,
2013-01-22 04:11:00,27.3,25.0,30.12,ESE,112,0.0,0.0,91,0.00,,CLR,0.00,VWS V14.00,2013-01-22 12:11:00,
2013-01-22 04:12:00,27.1,24.9,30.12,ESE,112,0.0,0.0,91,0.00,,CLR,0.00,VWS V14.00,2013-01-22 12:12:00,
2013-01-22 04:15:00,27.1,24.9,30.12,ESE,112,0.0,0.0,91,0.00,,CLR,0.00,VWS V14.00,2013-01-22 12:15:00,
2013-01-22 04:16:00,27.1,24.9,30.12,ESE,112,0.0,0.0,91,0.00,,CLR,0.00,VWS V14.00,2013-01-22 12:16:00,
2013-01-22 04:17:00,27.1,24.9,30.12,ESE,112,0.0,0.0,91,0.00,,CLR,0.00,VWS V14.00,2013-01-22 12:17:00,
2013-01-22 04:20:00,27.0,24.7,30.12,West,270,0.0,0.0,91,0.00,,CLR,0.00,VWS V14.00,2013-01-22 12:20:00,
2013-01-22 04:21:00,27.0,24.7,30.12,ESE,112,0.0,0.0,91,0.00,,CLR,0.00,VWS V14.00,2013-01-22 12:21:00,
2013-01-22 04:22:00,27.0,24.7,30.12,SSE,158,0.0,0.0,91,0.00,,CLR,0.00,VWS V14.00,2013-01-22 12:22:00,
2013-01-22 04:25:00,27.1,24.9,30.12,SE,135,0.0,0.0,91,0.00,,CLR,0.00,VWS V14.00,2013-01-22 12:25:00,
2013-01-22 04:26:00,27.1,24.9,30.12,SSW,202,0.0,0.0,91,0.00,,CLR,0.00,VWS V14.00,2013-01-22 12:26:00,
2013-01-22 04:27:00,27.1,24.9,30.12,SSE,158,0.0,0.0,91,0.00,,CLR,0.00,VWS V14.00,2013-01-22 12:27:00,
2013-01-22 04:30:00,27.1,24.9,30.12,SE,135,0.0,0.0,91,0.00,,CLR,0.00,VWS V14.00,2013-01-22 12:30:00,
2013-01-22 04:32:00,27.1,24.9,30.12,WSW,248,0.0,0.0,91,0.00,,CLR,0.00,VWS V14.00,2013-01-22 12:32:00,
2013-01-22 04:33:00,27.1,24.9,30.12,WSW,248,1.1,1.1,91,0.00,,CLR,0.00,VWS V14.00,2013-01-22 12:33:00,
2013-01-22 04:35:00,27.3,25.0,30.12,East,90,0.0,1.1,91,0.00,,CLR,0.00,VWS V14.00,2013-01-22 12:35:00,
2013-01-22 04:37:00,27.1,24.9,30.12,ESE,112,0.0,1.1,91,0.00,,CLR,0.00,VWS V14.00,2013-01-22 12:37:00,
2013-01-22 04:38:00,27.3,25.0,30.12,ESE,112,0.0,1.1,91,0.00,,CLR,0.00,VWS V14.00,2013-01-22 12:38:00,
2013-01-22 04:40:00,27.3,25.0,30.12,ENE,68,0.0,1.1,91,0.00,,CLR,0.00,VWS V14.00,2013-01-22 12:40:00,
2013-01-22 04:42:00,27.1,24.9,30.12,East,90,0.0,1.1,91,0.00,,CLR,0.00,VWS V14.00,2013-01-22 12:42:00,
2013-01-22 04:43:00,27.1,24.9,30.12,East,90,0.0,0.0,91,0.00,,CLR,0.00,VWS V14.00,2013-01-22 12:43:00,
2013-01-22 04:45:00,27.1,24.9,30.12,East,90,0.0,0.0,91,0.00,,CLR,0.00,VWS V14.00,2013-01-22 12:45:00,
2013-01-22 04:47:00,27.1,25.1,30.12,East,90,0.0,0.0,92,0.00,,CLR,0.00,VWS V14.00,2013-01-22 12:47:00,
2013-01-22 04:48:00,27.1,25.1,30.12,East,90,0.0,0.0,92,0.00,,CLR,0.00,VWS V14.00,2013-01-22 12:48:00,
2013-01-22 04:50:00,27.1,24.9,30.12,SSE,158,0.0,0.0,91,0.00,,CLR,0.00,VWS V14.00,2013-01-22 12:50:00,
2013-01-22 04:51:00,27.1,24.9,30.12,SSE,158,0.0,0.0,91,0.00,,CLR,0.00,VWS V14.00,2013-01-22 12:51:00,
2013-01-22 04:53:00,27.1,24.9,30.12,SSE,158,0.0,0.0,91,0.00,,CLR,0.00,VWS V14.00,2013-01-22 12:53:00,
2013-01-22 04:55:00,27.1,24.9,30.12,ESE,112,0.0,0.0,91,0.00,,CLR,0.00,VWS V14.00,2013-01-22 12:55:00,
2013-01-22 04:56:00,27.1,24.9,30.12,ESE,112,0.0,0.0,91,0.00,,CLR,0.00,VWS V14.00,2013-01-22 12:56:00,
2013-01-22 04:58:00,27.1,24.9,30.12,ESE,112,0.0,0.0,91,0.00,,CLR,0.00,VWS V14.00,2013-01-22 12:58:00,
2013-01-22 05:00:00,27.3,25.0,30.12,ESE,112,0.0,0.0,91,0.00,,CLR,0.00,VWS V14.00,2013-01-22 13:00:00,
2013-01-22 05:01:00,27.3,25.0,30.12,ESE,112,0.0,0.0,91,0.00,,CLR,0.00,VWS V14.00,2013-01-22 13:01:00,
2013-01-22 05:03:00,27.3,25.0,30.12,ESE,112,0.0,0.0,91,0.00,,CLR,0.00,VWS V14.00,2013-01-22 13:03:00,
2013-01-22 05:04:00,27.3,25.0,30.12,ESE,112,0.0,0.0,91,0.00,,CLR,0.00,VWS V14.00,2013-01-22 13:04:00,
2013-01-22 05:06:00,27.3,25.0,30.12,ESE,112,0.0,0.0,91,0.00,,CLR,0.00,VWS V14.00,2013-01-22 13:06:00,
2013-01-22 05:08:00,27.3,25.0,30.12,ESE,112,0.0,0.0,91,0.00,,CLR,0.00,VWS V14.00,2013-01-22 13:08:00,
2013-01-22 05:09:00,27.3,25.0,30.12,ESE,112,0.0,0.0,91,0.00,,CLR,0.00,VWS V14.00,2013-01-22 13:09:00,
2013-01-22 05:11:00,27.1,24.9,30.12,SE,135,0.0,0.0,91,0.00,,CLR,0.00,VWS V14.00,2013-01-22 13:11:00,
2013-01-22 05:12:00,27.1,24.9,30.12,SE,135,0.0,0.0,91,0.00,,CLR,0.00,VWS V14.00,2013-01-22 13:12:00,
2013-01-22 05:13:00,27.3,25.0,30.12,East,90,0.0,0.0,91,0.00,,CLR,0.00,VWS V14.00,2013-01-22 13:13:00,
2013-01-22 05:14:00,27.3,25.0,30.12,East,90,0.0,0.0,91,0.00,,CLR,0.00,VWS V14.00,2013-01-22 13:14:00,
2013-01-22 05:16:00,27.5,25.2,30.12,East,90,0.0,0.0,91,0.00,,CLR,0.00,VWS V14.00,2013-01-22 13:16:00,
2013-01-22 05:17:00,27.5,25.2,30.12,East,90,0.0,0.0,91,0.00,,CLR,0.00,VWS V14.00,2013-01-22 13:17:00,
2013-01-22 05:18:00,27.3,25.0,30.12,East,90,0.0,0.0,91,0.00,,CLR,0.00,VWS V14.00,2013-01-22 13:18:00,
2013-01-22 05:19:00,27.3,25.0,30.12,SE,135,0.0,0.0,91,0.00,,CLR,0.00,VWS V14.00,2013-01-22 13:19:00,
2013-01-22 05:21:00,27.3,25.0,30.12,SE,135,0.0,0.0,91,0.00,,CLR,0.00,VWS V14.00,2013-01-22 13:21:00,
2013-01-22 05:23:00,27.3,25.0,30.09,SE,135,0.0,0.0,91,0.00,,CLR,0.00,VWS V14.00,2013-01-22 13:23:00,
2013-01-22 05:24:00,27.3,25.0,30.09,SE,135,0.0,0.0,91,0.00,,CLR,0.00,VWS V14.00,2013-01-22 13:24:00,
2013-01-22 05:27:00,27.1,24.9,30.09,SE,135,0.0,0.0,91,0.00,,CLR,0.00,VWS V14.00,2013-01-22 13:27:00,
2013-01-22 05:28:00,27.1,24.9,30.09,SE,135,0.0,0.0,91,0.00,,CLR,0.00,VWS V14.00,2013-01-22 13:28:00,
2013-01-22 05:29:00,27.1,24.9,30.09,SE,135,0.0,0.0,91,0.00,,CLR,0.00,VWS V14.00,2013-01-22 13:29:00,
2013-01-22 05:32:00,27.0,24.7,30.09,SE,135,0.0,0.0,91,0.00,,CLR,0.00,VWS V14.00,2013-01-22 13:32:00,
2013-01-22 05:33:00,27.0,24.7,30.09,SE,135,0.0,0.0,91,0.00,,CLR,0.00,VWS V14.00,2013-01-22 13:33:00,
2013-01-22 05:34:00,27.0,24.7,30.09,SSW,202,0.0,0.0,91,0.00,,CLR,0.00,VWS V14.00,2013-01-22 13:34:00,
2013-01-22 05:37:00,27.1,24.9,30.09,SSE,158,0.0,0.0,91,0.00,,CLR,0.00,VWS V14.00,2013-01-22 13:37:00,
2013-01-22 05:38:00,27.1,24.9,30.09,SSE,158,0.0,0.0,91,0.00,,CLR,0.00,VWS V14.00,2013-01-22 13:38:00,
2013-01-22 05:39:00,27.1,24.9,30.09,ESE,112,0.0,0.0,91,0.00,,CLR,0.00,VWS V14.00,2013-01-22 13:39:00,
2013-01-22 05:42:00,27.0,24.7,30.09,ESE,112,0.0,0.0,91,0.00,,CLR,0.00,VWS V14.00,2013-01-22 13:42:00,
2013-01-22 05:43:00,27.0,24.7,30.09,ESE,112,0.0,0.0,91,0.00,,CLR,0.00,VWS V14.00,2013-01-22 13:43:00,
2013-01-22 05:44:00,27.0,24.7,30.09,ESE,112,0.0,0.0,91,0.00,,CLR,0.00,VWS V14.00,2013-01-22 13:44:00,
2013-01-22 05:47:00,27.0,24.7,30.09,ESE,112,0.0,0.0,91,0.00,,CLR,0.00,VWS V14.00,2013-01-22 13:47:00,
2013-01-22 05:48:00,27.0,24.7,30.09,ESE,112,0.0,0.0,91,0.00,,CLR,0.00,VWS V14.00,2013-01-22 13:48:00,
2013-01-22 05:49:00,27.0,24.7,30.09,ESE,112,0.0,0.0,91,0.00,,CLR,0.00,VWS V14.00,2013-01-22 13:49:00,
2013-01-22 05:52:00,27.0,24.7,30.09,ESE,112,0.0,0.0,91,0.00,,CLR,0.00,VWS V14.00,2013-01-22 13:52:00,
2013-01-22 05:53:00,27.0,24.7,30.09,ESE,112,0.0,0.0,91,0.00,,CLR,0.00,VWS V14.00,2013-01-22 13:53:00,
2013-01-22 05:54:00,27.0,24.7,30.09,SE,135,0.0,0.0,91,0.00,,CLR,0.00,VWS V14.00,2013-01-22 13:54:00,
2013-01-22 05:57:00,27.0,24.7,30.09,ESE,112,0.0,0.0,91,0.00,,CLR,0.00,VWS V14.00,2013-01-22 13:57:00,
2013-01-22 05:58:00,27.0,24.7,30.09,ESE,112,0.0,0.0,91,0.00,,CLR,0.00,VWS V14.00,2013-01-22 13:58:00,
2013-01-22 05:59:00,27.0,24.7,30.09,ESE,112,0.0,0.0,91,0.00,,CLR,0.00,VWS V14.00,2013-01-22 13:59:00,
2013-01-22 06:03:00,27.0,24.7,30.09,ESE,112,0.0,0.0,91,0.00,,CLR,0.00,VWS V14.00,2013-01-22 14:03:00,
2013-01-22 06:04:00,27.0,24.7,30.09,ESE,112,0.0,0.0,91,0.00,,CLR,0.00,VWS V14.00,2013-01-22 14:04:00,
2013-01-22 06:08:00,27.0,24.7,30.09,ESE,112,0.0,0.0,91,0.00,,CLR,0.00,VWS V14.00,2013-01-22 14:08:00,
2013-01-22 06:09:00,27.0,24.7,30.09,ESE,112,0.0,0.0,91,0.00,,CLR,0.00,VWS V14.00,2013-01-22 14:09:00,
2013-01-22 06:13:00,27.0,24.7,30.09,ESE,112,0.0,0.0,91,0.00,,CLR,0.00,VWS V14.00,2013-01-22 14:13:00,
2013-01-22 06:14:00,27.0,24.7,30.09,ESE,112,0.0,0.0,91,0.00,,CLR,0.00,VWS V14.00,2013-01-22 14:14:00,
2013-01-22 06:15:00,26.8,24.5,30.09,ESE,112,0.0,0.0,91,0.00,,CLR,0.00,VWS V14.00,2013-01-22 14:15:00,
2013-01-22 06:18:00,26.8,24.5,30.09,ESE,112,0.0,0.0,91,0.00,,CLR,0.00,VWS V14.00,2013-01-22 14:18:00,
2013-01-22 06:19:00,26.6,24.6,30.09,ESE,112,0.0,0.0,92,0.00,,CLR,0.00,VWS V14.00,2013-01-22 14:19:00,
2013-01-22 06:20:00,26.6,24.6,30.09,ESE,112,0.0,0.0,92,0.00,,CLR,0.00,VWS V14.00,2013-01-22 14:20:00,
2013-01-22 06:23:00,26.6,24.6,30.09,ESE,112,0.0,0.0,92,0.00,,CLR,0.00,VWS V14.00,2013-01-22 14:23:00,
2013-01-22 06:24:00,26.6,24.6,30.09,ESE,112,0.0,0.0,92,0.00,,CLR,0.00,VWS V14.00,2013-01-22 14:24:00,
2013-01-22 06:25:00,26.6,24.6,30.09,ESE,112,0.0,0.0,92,0.00,,CLR,0.00,VWS V14.00,2013-01-22 14:25:00,
2013-01-22 06:28:00,26.6,24.6,30.09,WSW,248,0.0,0.0,92,0.00,,CLR,0.00,VWS V14.00,2013-01-22 14:28:00,
2013-01-22 06:29:00,26.6,24.6,30.09,SSW,202,0.0,0.0,92,0.00,,CLR,0.00,VWS V14.00,2013-01-22 14:29:00,
2013-01-22 06:30:00,26.6,24.6,30.09,SW,225,0.0,0.0,92,0.00,,CLR,0.00,VWS V14.00,2013-01-22 14:30:00,
2013-01-22 06:33:00,26.8,24.8,30.09,South,180,0.0,0.0,92,0.00,,CLR,0.00,VWS V14.00,2013-01-22 14:33:00,
2013-01-22 06:34:00,26.8,24.8,30.09,South,180,0.0,0.0,92,0.00,,CLR,0.00,VWS V14.00,2013-01-22 14:34:00,
2013-01-22 06:35:00,26.8,24.8,30.09,SSE,158,0.0,0.0,92,0.00,,CLR,0.00,VWS V14.00,2013-01-22 14:35:00,
2013-01-22 06:38:00,26.8,24.8,30.09,SW,225,0.0,0.0,92,0.00,,CLR,0.00,VWS V14.00,2013-01-22 14:38:00,
2013-01-22 06:39:00,26.8,24.8,30.09,SE,135,0.0,0.0,92,0.00,,CLR,0.00,VWS V14.00,2013-01-22 14:39:00,
2013-01-22 06:40:00,26.8,24.8,30.09,SSE,158,0.0,0.0,92,0.00,,CLR,0.00,VWS V14.00,2013-01-22 14:40:00,
2013-01-22 06:43:00,26.8,24.8,30.09,SSE,158,0.0,0.0,92,0.00,,CLR,0.00,VWS V14.00,2013-01-22 14:43:00,
2013-01-22 06:44:00,26.8,24.8,30.09,SSE,158,0.0,0.0,92,0.00,,CLR,0.00,VWS V14.00,2013-01-22 14:44:00,
2013-01-22 06:45:00,26.8,24.8,30.09,ESE,112,0.0,0.0,92,0.00,,CLR,0.00,VWS V14.00,2013-01-22 14:45:00,
2013-01-22 06:48:00,26.8,24.8,30.09,SE,135,0.0,0.0,92,0.00,,CLR,0.00,VWS V14.00,2013-01-22 14:48:00,
2013-01-22 06:49:00,26.6,24.6,30.09,SE,135,0.0,0.0,92,0.00,,CLR,0.00,VWS V14.00,2013-01-22 14:49:00,
2013-01-22 06:50:00,26.6,24.6,30.09,East,90,0.0,0.0,92,0.00,,CLR,0.00,VWS V14.00,2013-01-22 14:50:00,
2013-01-22 06:53:00,26.6,24.6,30.09,South,180,0.0,0.0,92,0.00,,CLR,0.00,VWS V14.00,2013-01-22 14:53:00,
2013-01-22 06:54:00,26.6,24.6,30.09,South,180,0.0,0.0,92,0.00,,CLR,0.00,VWS V14.00,2013-01-22 14:54:00,
2013-01-22 06:55:00,26.6,24.6,30.09,ESE,112,0.0,0.0,92,0.00,,CLR,0.00,VWS V14.00,2013-01-22 14:55:00,
2013-01-22 06:58:00,26.6,24.6,30.09,East,90,0.0,0.0,92,0.00,,CLR,0.00,VWS V14.00,2013-01-22 14:58:00,
2013-01-22 06:59:00,26.6,24.6,30.09,East,90,0.0,0.0,92,0.00,,CLR,0.00,VWS V14.00,2013-01-22 14:59:00,
2013-01-22 07:00:00,26.4,24.4,30.09,ESE,112,0.0,0.0,92,0.00,,CLR,0.00,VWS V14.00,2013-01-22 15:00:00,
2013-01-22 07:03:00,26.6,24.6,30.09,SSW,202,0.0,0.0,92,0.00,,CLR,0.00,VWS V14.00,2013-01-22 15:03:00,
2013-01-22 07:04:00,26.6,24.6,30.09,ESE,112,0.0,0.0,92,0.00,,CLR,0.00,VWS V14.00,2013-01-22 15:04:00,
2013-01-22 07:05:00,26.6,24.6,30.09,SW,225,0.0,0.0,92,0.00,,CLR,0.00,VWS V14.00,2013-01-22 15:05:00,
2013-01-22 07:08:00,26.8,24.5,30.09,ESE,112,0.0,0.0,91,0.00,,CLR,0.00,VWS V14.00,2013-01-22 15:08:00,
2013-01-22 07:09:00,26.8,24.5,30.09,SSE,158,0.0,0.0,91,0.00,,CLR,0.00,VWS V14.00,2013-01-22 15:09:00,
2013-01-22 07:10:00,26.8,24.5,30.09,WSW,248,0.0,0.0,91,0.00,,CLR,0.00,VWS V14.00,2013-01-22 15:10:00,
2013-01-22 07:13:00,26.8,24.5,30.09,ESE,112,0.0,0.0,91,0.00,,CLR,0.00,VWS V14.00,2013-01-22 15:13:00,
2013-01-22 07:14:00,26.8,24.5,30.09,East,90,0.0,0.0,91,0.00,,CLR,0.00,VWS V14.00,2013-01-22 15:14:00,
2013-01-22 07:15:00,26.8,24.5,30.09,East,90,0.0,0.0,91,0.00,,CLR,0.00,VWS V14.00,2013-01-22 15:15:00,
2013-01-22 07:18:00,26.8,24.5,30.09,East,90,0.0,0.0,91,0.00,,CLR,0.00,VWS V14.00,2013-01-22 15:18:00,
2013-01-22 07:19:00,26.8,24.5,30.09,SSW,202,0.0,0.0,91,0.00,,CLR,0.00,VWS V14.00,2013-01-22 15:19:00,
2013-01-22 07:20:00,26.8,24.5,30.09,ESE,112,0.0,0.0,91,0.00,,CLR,0.00,VWS V14.00,2013-01-22 15:20:00,
2013-01-22 07:23:00,26.8,24.5,30.09,ESE,112,0.0,0.0,91,0.00,,CLR,0.00,VWS V14.00,2013-01-22 15:23:00,
2013-01-22 07:24:00,26.8,24.5,30.09,ESE,112,0.0,0.0,91,0.00,,CLR,0.00,VWS V14.00,2013-01-22 15:24:00,
2013-01-22 07:25:00,26.8,24.5,30.09,East,90,0.0,0.0,91,0.00,,CLR,0.00,VWS V14.00,2013-01-22 15:25:00,
2013-01-22 07:28:00,27.0,24.7,30.09,ESE,112,0.0,0.0,91,0.00,,CLR,0.00,VWS V14.00,2013-01-22 15:28:00,
2013-01-22 07:29:00,27.0,24.7,30.09,ESE,112,0.0,0.0,91,0.00,,CLR,0.00,VWS V14.00,2013-01-22 15:29:00,
2013-01-22 07:30:00,27.0,24.7,30.09,ESE,112,0.0,0.0,91,0.00,,CLR,0.00,VWS V14.00,2013-01-22 15:30:00,
2013-01-22 07:33:00,27.0,24.7,30.09,ESE,112,0.0,0.0,91,0.00,,CLR,0.00,VWS V14.00,2013-01-22 15:33:00,
2013-01-22 07:34:00,27.0,24.7,30.09,ESE,112,0.0,0.0,91,0.00,,CLR,0.00,VWS V14.00,2013-01-22 15:34:00,
2013-01-22 07:35:00,27.0,24.7,30.09,East,90,0.0,0.0,91,0.00,,CLR,0.00,VWS V14.00,2013-01-22 15:35:00,
2013-01-22 07:38:00,27.0,24.7,30.09,SE,135,0.0,0.0,91,0.00,,CLR,0.00,VWS V14.00,2013-01-22 15:38:00,
2013-01-22 07:39:00,27.0,24.7,30.09,SE,135,0.0,0.0,91,0.00,,CLR,0.00,VWS V14.00,2013-01-22 15:39:00,
2013-01-22 07:40:00,27.0,24.7,30.09,SE,135,0.0,0.0,91,0.00,,CLR,0.00,VWS V14.00,2013-01-22 15:40:00,
2013-01-22 07:43:00,27.0,24.7,30.09,SE,135,0.0,0.0,91,0.00,,CLR,0.00,VWS V14.00,2013-01-22 15:43:00,
2013-01-22 07:44:00,26.8,24.5,30.09,SE,135,0.0,0.0,91,0.00,,CLR,0.00,VWS V14.00,2013-01-22 15:44:00,
2013-01-22 07:45:00,26.8,24.5,30.09,ESE,112,0.0,0.0,91,0.00,,CLR,0.00,VWS V14.00,2013-01-22 15:45:00,
2013-01-22 07:48:00,27.0,24.7,30.09,ESE,112,0.0,0.0,91,0.00,,CLR,0.00,VWS V14.00,2013-01-22 15:48:00,
2013-01-22 07:49:00,27.0,24.7,30.09,ESE,112,0.0,0.0,91,0.00,,CLR,0.00,VWS V14.00,2013-01-22 15:49:00,
2013-01-22 07:50:00,27.0,24.7,30.09,ESE,112,0.0,0.0,91,0.00,,CLR,0.00,VWS V14.00,2013-01-22 15:50:00,
2013-01-22 07:53:00,26.8,24.5,30.06,ESE,112,0.0,0.0,91,0.00,,CLR,0.00,VWS V14.00,2013-01-22 15:53:00,
2013-01-22 07:54:00,26.8,24.5,30.06,ESE,112,0.0,0.0,91,0.00,,CLR,0.00,VWS V14.00,2013-01-22 15:54:00,
2013-01-22 07:55:00,26.8,24.5,30.06,ESE,112,0.0,0.0,91,0.00,,CLR,0.00,VWS V14.00,2013-01-22 15:55:00,
2013-01-22 07:58:00,27.0,25.0,30.06,ESE,112,0.0,0.0,92,0.00,,CLR,0.00,VWS V14.00,2013-01-22 15:58:00,
2013-01-22 07:59:00,27.0,25.0,30.06,ESE,112,0.0,0.0,92,0.00,,CLR,0.00,VWS V14.00,2013-01-22 15:59:00,
2013-01-22 08:00:00,27.0,25.0,30.06,ESE,112,0.0,0.0,92,0.00,,CLR,0.00,VWS V14.00,2013-01-22 16:00:00,
2013-01-22 08:01:00,27.1,25.1,30.06,ESE,112,0.0,0.0,92,0.00,,CLR,0.00,VWS V14.00,2013-01-22 16:01:00,
2013-01-22 08:03:00,27.5,25.5,30.06,ESE,112,0.0,0.0,92,0.00,,CLR,0.00,VWS V14.00,2013-01-22 16:03:00,
2013-01-22 08:04:00,27.5,25.5,30.06,ESE,112,0.0,0.0,92,0.00,,CLR,0.00,VWS V14.00,2013-01-22 16:04:00,
2013-01-22 08:05:00,27.5,25.5,30.06,ESE,112,0.0,0.0,92,0.00,,CLR,0.00,VWS V14.00,2013-01-22 16:05:00,
2013-01-22 08:06:00,27.5,25.5,30.06,ESE,112,0.0,0.0,92,0.00,,CLR,0.00,VWS V14.00,2013-01-22 16:06:00,
2013-01-22 08:08:00,27.7,25.7,30.06,ESE,112,0.0,0.0,92,0.00,,CLR,0.00,VWS V14.00,2013-01-22 16:08:00,
2013-01-22 08:09:00,27.7,25.7,30.06,ESE,112,0.0,0.0,92,0.00,,CLR,0.00,VWS V14.00,2013-01-22 16:09:00,
2013-01-22 08:10:00,27.7,25.7,30.06,ESE,112,0.0,0.0,92,0.00,,CLR,0.00,VWS V14.00,2013-01-22 16:10:00,
2013-01-22 08:11:00,27.7,25.7,30.06,ESE,112,0.0,0.0,92,0.00,,CLR,0.00,VWS V14.00,2013-01-22 16:11:00,
2013-01-22 08:13:00,27.7,25.7,30.06,SE,135,0.0,0.0,92,0.00,,CLR,0.00,VWS V14.00,2013-01-22 16:13:00,
2013-01-22 08:15:00,27.7,25.4,30.06,SE,135,0.0,0.0,91,0.00,,CLR,0.00,VWS V14.00,2013-01-22 16:15:00,
2013-01-22 08:17:00,27.9,25.6,30.06,SE,135,0.0,0.0,91,0.00,,CLR,0.00,VWS V14.00,2013-01-22 16:17:00,
2013-01-22 08:18:00,27.9,25.6,30.06,ESE,112,0.0,0.0,91,0.00,,CLR,0.00,VWS V14.00,2013-01-22 16:18:00,
2013-01-22 08:20:00,27.9,25.6,30.06,ESE,112,1.3,1.3,91,0.00,,CLR,0.00,VWS V14.00,2013-01-22 16:20:00,
2013-01-22 08:22:00,27.9,25.6,30.06,ESE,112,0.0,1.3,91,0.00,,CLR,0.00,VWS V14.00,2013-01-22 16:22:00,
2013-01-22 08:24:00,27.9,25.6,30.09,East,90,0.0,1.3,91,0.00,,CLR,0.00,VWS V14.00,2013-01-22 16:24:00,
2013-01-22 08:25:00,27.9,25.6,30.09,East,90,0.0,1.3,91,0.00,,CLR,0.00,VWS V14.00,2013-01-22 16:25:00,
2013-01-22 08:27:00,27.9,25.6,30.09,East,90,0.0,1.3,91,0.00,,CLR,0.00,VWS V14.00,2013-01-22 16:27:00,
2013-01-22 08:29:00,27.9,25.6,30.09,East,90,0.0,1.3,91,0.00,,CLR,0.00,VWS V14.00,2013-01-22 16:29:00,
2013-01-22 08:30:00,27.9,25.6,30.09,East,90,0.0,1.3,91,0.00,,CLR,0.00,VWS V14.00,2013-01-22 16:30:00,
2013-01-22 08:33:00,27.9,25.6,30.09,East,90,0.0,1.3,91,0.00,,CLR,0.00,VWS V14.00,2013-01-22 16:33:00,
2013-01-22 08:34:00,28.0,25.8,30.09,East,90,0.0,1.3,91,0.00,,CLR,0.00,VWS V14.00,2013-01-22 16:34:00,
2013-01-22 08:35:00,28.0,25.8,30.09,East,90,0.0,1.3,91,0.00,,CLR,0.00,VWS V14.00,2013-01-22 16:35:00,
2013-01-22 08:38:00,28.0,25.8,30.09,East,90,0.0,0.0,91,0.00,,CLR,0.00,VWS V14.00,2013-01-22 16:38:00,
2013-01-22 08:39:00,28.0,25.8,30.09,East,90,0.0,0.0,91,0.00,,CLR,0.00,VWS V14.00,2013-01-22 16:39:00,
2013-01-22 08:40:00,28.0,25.8,30.09,East,90,0.0,0.0,91,0.00,,CLR,0.00,VWS V14.00,2013-01-22 16:40:00,
2013-01-22 08:43:00,28.2,25.9,30.09,East,90,0.0,0.0,91,0.00,,CLR,0.00,VWS V14.00,2013-01-22 16:43:00,
2013-01-22 08:44:00,28.2,25.9,30.09,East,90,0.0,0.0,91,0.00,,CLR,0.00,VWS V14.00,2013-01-22 16:44:00,
2013-01-22 08:45:00,28.2,25.9,30.09,East,90,0.0,0.0,91,0.00,,CLR,0.00,VWS V14.00,2013-01-22 16:45:00,
2013-01-22 08:48:00,28.6,26.0,30.09,East,90,0.0,0.0,90,0.00,,CLR,0.00,VWS V14.00,2013-01-22 16:48:00,
2013-01-22 08:49:00,28.6,26.0,30.09,East,90,0.0,0.0,90,0.00,,CLR,0.00,VWS V14.00,2013-01-22 16:49:00,
2013-01-22 08:50:00,28.6,26.0,30.09,East,90,0.0,0.0,90,0.00,,CLR,0.00,VWS V14.00,2013-01-22 16:50:00,
2013-01-22 08:53:00,28.6,26.0,30.09,East,90,0.0,0.0,90,0.00,,CLR,0.00,VWS V14.00,2013-01-22 16:53:00,
2013-01-22 08:54:00,28.6,26.0,30.09,SE,135,0.0,0.0,90,0.00,,CLR,0.00,VWS V14.00,2013-01-22 16:54:00,
2013-01-22 08:55:00,28.6,26.0,30.09,SE,135,0.0,0.0,90,0.00,,CLR,0.00,VWS V14.00,2013-01-22 16:55:00,
2013-01-22 08:58:00,28.6,26.0,30.09,East,90,0.0,0.0,90,0.00,,CLR,0.00,VWS V14.00,2013-01-22 16:58:00,
2013-01-22 08:59:00,28.6,26.0,30.09,East,90,0.0,0.0,90,0.00,,CLR,0.00,VWS V14.00,2013-01-22 16:59:00,
2013-01-22 09:00:00,28.6,26.0,30.09,East,90,0.0,0.0,90,0.00,,CLR,0.00,VWS V14.00,2013-01-22 17:00:00,
2013-01-22 09:03:00,28.8,26.2,30.09,ESE,112,0.0,0.0,90,0.00,,CLR,0.00,VWS V14.00,2013-01-22 17:03:00,
2013-01-22 09:04:00,28.8,26.2,30.09,ESE,112,0.0,0.0,90,0.00,,CLR,0.00,VWS V14.00,2013-01-22 17:04:00,
2013-01-22 09:05:00,28.8,26.2,30.09,ESE,112,0.0,0.0,90,0.00,,CLR,0.00,VWS V14.00,2013-01-22 17:05:00,
2013-01-22 09:08:00,29.1,26.6,30.09,ESE,112,0.0,0.0,90,0.00,,CLR,0.00,VWS V14.00,2013-01-22 17:08:00,
2013-01-22 09:09:00,29.1,26.6,30.09,ESE,112,0.0,0.0,90,0.00,,CLR,0.00,VWS V14.00,2013-01-22 17:09:00,
2013-01-22 09:10:00,29.1,26.6,30.09,ESE,112,0.0,0.0,90,0.00,,CLR,0.00,VWS V14.00,2013-01-22 17:10:00,
2013-01-22 09:11:00,29.3,26.7,30.09,ESE,112,0.0,0.0,90,0.00,,CLR,0.00,VWS V14.00,2013-01-22 17:11:00,
2013-01-22 09:13:00,29.5,26.9,30.09,ESE,112,0.0,0.0,90,0.00,,CLR,0.00,VWS V14.00,2013-01-22 17:13:00,
2013-01-22 09:14:00,29.5,26.9,30.09,ESE,112,0.0,0.0,90,0.00,,CLR,0.00,VWS V14.00,2013-01-22 17:14:00,
2013-01-22 09:15:00,29.5,26.9,30.09,ESE,112,0.0,0.0,90,0.00,,CLR,0.00,VWS V14.00,2013-01-22 17:15:00,
2013-01-22 09:16:00,29.7,27.1,30.09,ESE,112,0.0,0.0,90,0.00,,CLR,0.00,VWS V14.00,2013-01-22 17:16:00,
2013-01-22 09:19:00,29.7,26.8,30.09,ESE,112,0.0,0.0,89,0.00,,CLR,0.00,VWS V14.00,2013-01-22 17:19:00,
2013-01-22 09:20:00,29.8,27.0,30.09,ESE,112,0.0,0.0,89,0.00,,CLR,0.00,VWS V14.00,2013-01-22 17:20:00,
2013-01-22 09:21:00,29.8,27.0,30.09,ESE,112,0.0,0.0,89,0.00,,CLR,0.00,VWS V14.00,2013-01-22 17:21:00,
2013-01-22 09:24:00,30.0,27.2,30.09,ESE,112,0.0,0.0,89,0.00,,CLR,0.00,VWS V14.00,2013-01-22 17:24:00,
2013-01-22 09:25:00,30.0,27.2,30.09,ESE,112,0.0,0.0,89,0.00,,CLR,0.00,VWS V14.00,2013-01-22 17:25:00,
2013-01-22 09:26:00,30.2,27.4,30.09,ESE,112,0.0,0.0,89,0.00,,CLR,0.00,VWS V14.00,2013-01-22 17:26:00,
2013-01-22 09:29:00,30.2,27.4,30.09,ESE,112,0.0,0.0,89,0.00,,CLR,0.00,VWS V14.00,2013-01-22 17:29:00,
2013-01-22 09:30:00,30.2,27.4,30.09,ESE,112,0.0,0.0,89,0.00,,CLR,0.00,VWS V14.00,2013-01-22 17:30:00,
2013-01-22 09:31:00,30.2,27.4,30.09,ESE,112,0.0,0.0,89,0.00,,CLR,0.00,VWS V14.00,2013-01-22 17:31:00,
2013-01-22 09:34:00,30.6,27.7,30.09,ESE,112,0.0,0.0,89,0.00,,CLR,0.00,VWS V14.00,2013-01-22 17:34:00,
2013-01-22 09:35:00,30.7,27.9,30.09,ESE,112,0.0,0.0,89,0.00,,CLR,0.00,VWS V14.00,2013-01-22 17:35:00,
2013-01-22 09:37:00,30.7,27.9,30.09,ESE,112,0.0,0.0,89,0.00,,CLR,0.00,VWS V14.00,2013-01-22 17:37:00,
2013-01-22 09:40:00,30.7,27.9,30.09,ESE,112,0.0,0.0,89,0.00,,CLR,0.00,VWS V14.00,2013-01-22 17:40:00,
2013-01-22 09:42:00,30.9,28.1,30.09,East,90,0.0,0.0,89,0.00,,CLR,0.00,VWS V14.00,2013-01-22 17:42:00,
2013-01-22 09:45:00,31.1,28.2,30.09,East,90,0.0,0.0,89,0.00,,CLR,0.00,VWS V14.00,2013-01-22 17:45:00,
2013-01-22 09:47:00,31.1,28.2,30.09,East,90,0.0,0.0,89,0.00,,CLR,0.00,VWS V14.00,2013-01-22 17:47:00,
2013-01-22 09:50:00,31.3,28.1,30.09,ENE,68,0.0,0.9,88,0.00,,CLR,0.00,VWS V14.00,2013-01-22 17:50:00,
2013-01-22 09:52:00,31.3,28.1,30.09,East,90,0.0,0.9,88,0.00,,CLR,0.00,VWS V14.00,2013-01-22 17:52:00,
2013-01-22 09:55:00,31.3,28.1,30.09,East,90,0.0,0.0,88,0.00,,CLR,0.00,VWS V14.00,2013-01-22 17:55:00,
2013-01-22 09:57:00,31.3,28.1,30.09,ENE,68,0.0,0.0,88,0.00,,CLR,0.00,VWS V14.00,2013-01-22 17:57:00,
2013-01-22 10:00:00,31.3,28.1,30.09,ENE,68,0.0,0.0,88,0.00,,CLR,0.00,VWS V14.00,2013-01-22 18:00:00,
2013-01-22 10:02:00,31.5,28.3,30.09,ENE,68,0.0,0.0,88,0.00,,CLR,0.00,VWS V14.00,2013-01-22 18:02:00,
2013-01-22 10:05:00,31.6,28.5,30.09,ENE,68,0.0,0.0,88,0.00,,CLR,0.00,VWS V14.00,2013-01-22 18:05:00,
2013-01-22 10:06:00,31.8,28.7,30.09,SSE,158,0.0,0.0,88,0.00,,CLR,0.00,VWS V14.00,2013-01-22 18:06:00,
2013-01-22 10:08:00,31.8,28.7,30.09,East,90,0.0,0.0,88,0.00,,CLR,0.00,VWS V14.00,2013-01-22 18:08:00,
2013-01-22 10:10:00,32.0,28.9,30.09,East,90,0.0,0.0,88,0.00,,CLR,0.00,VWS V14.00,2013-01-22 18:10:00,
2013-01-22 10:12:00,32.0,28.9,30.09,ESE,112,0.0,0.0,88,0.00,,CLR,0.00,VWS V14.00,2013-01-22 18:12:00,
2013-01-22 10:13:00,32.2,29.0,30.09,ESE,112,0.0,0.0,88,0.00,,CLR,0.00,VWS V14.00,2013-01-22 18:13:00,
2013-01-22 10:15:00,32.2,29.0,30.09,ESE,112,0.0,0.0,88,0.00,,CLR,0.00,VWS V14.00,2013-01-22 18:15:00,
2013-01-22 10:17:00,32.4,29.2,30.09,ESE,112,0.0,0.0,88,0.00,,CLR,0.00,VWS V14.00,2013-01-22 18:17:00,
2013-01-22 10:18:00,32.5,29.4,30.09,ESE,112,0.0,0.0,88,0.00,,CLR,0.00,VWS V14.00,2013-01-22 18:18:00,
2013-01-22 10:20:00,32.5,29.4,30.09,SE,135,0.0,0.0,88,0.00,,CLR,0.00,VWS V14.00,2013-01-22 18:20:00,
2013-01-22 10:22:00,32.5,29.4,30.09,SSE,158,0.0,0.0,88,0.00,,CLR,0.00,VWS V14.00,2013-01-22 18:22:00,
2013-01-22 10:23:00,32.7,29.6,30.09,SSE,158,0.0,0.0,88,0.00,,CLR,0.00,VWS V14.00,2013-01-22 18:23:00,
2013-01-22 10:25:00,32.7,29.6,30.09,WSW,248,0.0,0.0,88,0.00,,CLR,0.00,VWS V14.00,2013-01-22 18:25:00,
2013-01-22 10:28:00,32.9,29.7,30.09,WSW,248,0.0,0.0,88,0.00,,CLR,0.00,VWS V14.00,2013-01-22 18:28:00,
2013-01-22 10:30:00,32.9,29.7,30.09,East,90,0.0,0.0,88,0.00,,CLR,0.00,VWS V14.00,2013-01-22 18:30:00,
2013-01-22 10:33:00,33.1,29.9,30.09,ESE,112,0.0,0.0,88,0.00,,CLR,0.00,VWS V14.00,2013-01-22 18:33:00,
2013-01-22 10:35:00,33.1,29.9,30.09,SSW,202,0.0,0.0,88,0.00,,CLR,0.00,VWS V14.00,2013-01-22 18:35:00,
2013-01-22 10:38:00,33.3,30.1,30.09,WSW,248,0.0,0.0,88,0.00,,CLR,0.00,VWS V14.00,2013-01-22 18:38:00,
2013-01-22 10:40:00,33.3,29.8,30.09,ESE,112,0.0,0.0,87,0.00,,CLR,0.00,VWS V14.00,2013-01-22 18:40:00,
2013-01-22 10:43:00,33.3,29.8,30.09,ESE,112,0.0,0.0,87,0.00,,CLR,0.00,VWS V14.00,2013-01-22 18:43:00,
2013-01-22 10:45:00,33.4,30.0,30.09,ESE,112,0.0,0.0,87,0.00,,CLR,0.00,VWS V14.00,2013-01-22 18:45:00,
2013-01-22 10:46:00,33.4,30.0,30.09,ESE,112,0.0,0.0,87,0.00,,CLR,0.00,VWS V14.00,2013-01-22 18:46:00,
2013-01-22 10:48:00,33.4,30.0,30.09,NNW,338,0.0,0.0,87,0.00,,CLR,0.00,VWS V14.00,2013-01-22 18:48:00,
2013-01-22 10:50:00,33.8,30.1,30.09,NNW,338,0.0,0.0,86,0.00,,CLR,0.00,VWS V14.00,2013-01-22 18:50:00,
2013-01-22 10:51:00,33.8,30.1,30.09,NNW,338,0.0,0.0,86,0.00,,CLR,0.00,VWS V14.00,2013-01-22 18:51:00,
2013-01-22 10:53:00,33.8,29.8,30.09,ESE,112,0.0,0.0,85,0.00,,CLR,0.00,VWS V14.00,2013-01-22 18:53:00,
2013-01-22 10:54:00,33.8,29.8,30.09,ESE,112,0.0,0.0,85,0.00,,CLR,0.00,VWS V14.00,2013-01-22 18:54:00,
2013-01-22 10:55:00,34.0,30.2,30.09,East,90,0.0,0.0,86,0.00,,CLR,0.00,VWS V14.00,2013-01-22 18:55:00,
2013-01-22 10:56:00,34.0,30.2,30.09,East,90,0.0,0.0,86,0.00,,CLR,0.00,VWS V14.00,2013-01-22 18:56:00,
2013-01-22 10:58:00,34.0,30.5,30.09,ESE,112,0.0,0.0,87,0.00,,CLR,0.00,VWS V14.00,2013-01-22 18:58:00,
2013-01-22 10:59:00,34.0,30.5,30.09,ESE,112,0.0,0.0,87,0.00,,CLR,0.00,VWS V14.00,2013-01-22 18:59:00,
2013-01-22 11:01:00,34.0,30.5,30.09,ENE,68,0.0,0.0,87,0.00,,CLR,0.00,VWS V14.00,2013-01-22 19:01:00,
2013-01-22 11:03:00,34.0,30.0,30.09,ENE,68,0.0,0.0,85,0.00,,CLR,0.00,VWS V14.00,2013-01-22 19:03:00,
2013-01-22 11:04:00,34.0,30.0,30.09,ENE,68,0.0,0.0,85,0.00,,CLR,0.00,VWS V14.00,2013-01-22 19:04:00,
2013-01-22 11:06:00,34.0,30.0,30.09,East,90,0.0,0.0,85,0.00,,CLR,0.00,VWS V14.00,2013-01-22 19:06:00,
2013-01-22 11:09:00,34.2,30.1,30.09,ENE,68,0.0,0.0,85,0.00,,CLR,0.00,VWS V14.00,2013-01-22 19:09:00,
2013-01-22 11:11:00,34.2,29.8,30.09,ENE,68,0.0,0.0,84,0.00,,CLR,0.00,VWS V14.00,2013-01-22 19:11:00,
2013-01-22 11:14:00,34.3,30.0,30.09,ENE,68,0.0,0.0,84,0.00,,CLR,0.00,VWS V14.00,2013-01-22 19:14:00,
2013-01-22 11:17:00,34.3,30.0,30.09,NNE,22,0.0,1.1,84,0.00,,CLR,0.00,VWS V14.00,2013-01-22 19:17:00,
2013-01-22 11:19:00,34.3,30.0,30.09,NE,45,0.0,1.1,84,0.00,,CLR,0.00,VWS V14.00,2013-01-22 19:19:00,
2013-01-22 11:22:00,34.5,30.2,30.09,NNW,338,0.0,1.1,84,0.00,,CLR,0.00,VWS V14.00,2013-01-22 19:22:00,
2013-01-22 11:24:00,34.5,30.2,30.09,West,270,0.0,1.1,84,0.00,,CLR,0.00,VWS V14.00,2013-01-22 19:24:00,
2013-01-22 11:27:00,34.5,29.9,30.09,NW,315,0.0,2.5,83,0.00,,CLR,0.00,VWS V14.00,2013-01-22 19:27:00,
2013-01-22 11:29:00,34.7,30.1,30.09,WNW,292,0.0,2.5,83,0.00,,CLR,0.00,VWS V14.00,2013-01-22 19:29:00,
2013-01-22 11:32:00,34.9,30.0,30.09,West,270,0.9,2.5,82,0.00,,CLR,0.00,VWS V14.00,2013-01-22 19:32:00,
2013-01-22 11:34:00,34.9,30.0,30.09,NNW,338,0.0,2.5,82,0.00,,CLR,0.00,VWS V14.00,2013-01-22 19:34:00,
2013-01-22 11:37:00,35.1,29.8,30.09,NE,45,0.0,2.5,81,0.00,,CLR,0.00,VWS V14.00,2013-01-22 19:37:00,
2013-01-22 11:39:00,35.1,30.1,30.06,East,90,0.0,2.5,82,0.00,,CLR,0.00,VWS V14.00,2013-01-22 19:39:00,
2013-01-22 11:40:00,35.1,30.1,30.06,East,90,0.0,2.5,82,0.00,,CLR,0.00,VWS V14.00,2013-01-22 19:40:00,
2013-01-22 11:42:00,35.2,30.3,30.06,ESE,112,0.0,0.9,82,0.00,,CLR,0.00,VWS V14.00,2013-01-22 19:42:00,
2013-01-22 11:44:00,35.2,30.3,30.06,East,90,0.0,2.7,82,0.00,,CLR,0.00,VWS V14.00,2013-01-22 19:44:00,
2013-01-22 11:45:00,35.2,30.3,30.06,East,90,4.0,4.0,82,0.00,,CLR,0.00,VWS V14.00,2013-01-22 19:45:00,
2013-01-22 11:47:00,35.1,30.1,30.06,NNE,22,1.6,4.0,82,0.00,,CLR,0.00,VWS V14.00,2013-01-22 19:47:00,
2013-01-22 11:49:00,35.1,30.1,30.06,NW,315,0.0,4.0,82,0.00,,CLR,0.00,VWS V14.00,2013-01-22 19:49:00,
2013-01-22 11:50:00,35.1,30.1,30.06,NW,315,0.0,4.0,82,0.00,,CLR,0.00,VWS V14.00,2013-01-22 19:50:00,
2013-01-22 11:52:00,35.1,30.1,30.06,ENE,68,0.0,4.0,82,0.00,,CLR,0.00,VWS V14.00,2013-01-22 19:52:00,
2013-01-22 11:54:00,35.1,30.1,30.06,ESE,112,0.0,4.0,82,0.00,,CLR,0.00,VWS V14.00,2013-01-22 19:54:00,
2013-01-22 11:55:00,35.1,30.1,30.06,ESE,112,0.0,4.0,82,0.00,,CLR,0.00,VWS V14.00,2013-01-22 19:55:00,
2013-01-22 11:57:00,35.2,30.3,30.06,ENE,68,0.0,4.0,82,0.00,,CLR,0.00,VWS V14.00,2013-01-22 19:57:00,
2013-01-22 11:59:00,35.2,30.3,30.06,NNE,22,0.0,4.0,82,0.00,,CLR,0.00,VWS V14.00,2013-01-22 19:59:00,
2013-01-22 12:00:00,35.2,30.3,30.06,NE,45,0.0,4.0,82,0.00,,CLR,0.00,VWS V14.00,2013-01-22 20:00:00,
2013-01-22 12:02:00,35.2,30.6,30.06,East,90,0.0,4.0,83,0.00,,CLR,0.00,VWS V14.00,2013-01-22 20:02:00,
2013-01-22 12:03:00,35.2,30.6,30.06,East,90,0.0,1.6,83,0.00,,CLR,0.00,VWS V14.00,2013-01-22 20:03:00,
2013-01-22 12:04:00,35.2,30.6,30.06,East,90,0.0,1.6,83,0.00,,CLR,0.00,VWS V14.00,2013-01-22 20:04:00,
2013-01-22 12:05:00,35.2,30.6,30.06,NE,45,0.0,0.0,83,0.00,,CLR,0.00,VWS V14.00,2013-01-22 20:05:00,
2013-01-22 12:07:00,35.2,30.3,30.06,ESE,112,0.9,0.9,82,0.00,,CLR,0.00,VWS V14.00,2013-01-22 20:07:00,
2013-01-22 12:08:00,35.2,30.3,30.06,East,90,0.0,0.9,82,0.00,,CLR,0.00,VWS V14.00,2013-01-22 20:08:00,
2013-01-22 12:09:00,35.4,30.5,30.06,East,90,0.9,0.9,82,0.00,,CLR,0.00,VWS V14.00,2013-01-22 20:09:00,
2013-01-22 12:10:00,35.4,30.5,30.06,ENE,68,2.0,2.0,82,0.00,,CLR,0.00,VWS V14.00,2013-01-22 20:10:00,
2013-01-22 12:12:00,35.4,30.5,30.06,ENE,68,0.0,2.0,82,0.00,,CLR,0.00,VWS V14.00,2013-01-22 20:12:00,
2013-01-22 12:13:00,35.4,30.5,30.06,ENE,68,0.0,2.0,82,0.00,,CLR,0.00,VWS V14.00,2013-01-22 20:13:00,
2013-01-22 12:14:00,35.4,30.5,30.06,ENE,68,0.0,2.0,82,0.00,,CLR,0.00,VWS V14.00,2013-01-22 20:14:00,
2013-01-22 12:15:00,35.4,30.5,30.06,ENE,68,0.0,2.0,82,0.00,,CLR,0.00,VWS V14.00,2013-01-22 20:15:00,
2013-01-22 12:17:00,35.6,30.4,30.06,East,90,0.0,2.0,81,0.00,,CLR,0.00,VWS V14.00,2013-01-22 20:17:00,
2013-01-22 12:18:00,35.8,30.5,30.06,East,90,0.0,2.0,81,0.00,,CLR,0.00,VWS V14.00,2013-01-22 20:18:00,
2013-01-22 12:19:00,36.0,31.0,30.06,East,90,0.0,2.0,82,0.00,,CLR,0.00,VWS V14.00,2013-01-22 20:19:00,
2013-01-22 12:20:00,36.0,31.0,30.06,East,90,0.0,2.0,82,0.00,,CLR,0.00,VWS V14.00,2013-01-22 20:20:00,
2013-01-22 12:22:00,36.0,31.0,30.03,NE,45,0.0,2.0,82,0.00,,CLR,0.00,VWS V14.00,2013-01-22 20:22:00,
2013-01-22 12:23:00,36.0,30.7,30.03,NE,45,0.0,2.0,81,0.00,,CLR,0.00,VWS V14.00,2013-01-22 20:23:00,
2013-01-22 12:24:00,36.0,30.7,30.03,NE,45,0.0,2.0,81,0.00,,CLR,0.00,VWS V14.00,2013-01-22 20:24:00,
2013-01-22 12:25:00,36.0,31.0,30.03,NNW,338,0.0,2.0,82,0.00,,CLR,0.00,VWS V14.00,2013-01-22 20:25:00,
2013-01-22 12:27:00,36.0,30.7,30.03,ESE,112,0.0,0.0,81,0.00,,CLR,0.00,VWS V14.00,2013-01-22 20:27:00,
2013-01-22 12:28:00,36.0,30.7,30.03,ESE,112,0.0,0.0,81,0.00,,CLR,0.00,VWS V14.00,2013-01-22 20:28:00,
2013-01-22 12:29:00,36.1,30.9,30.03,NW,315,0.0,0.0,81,0.00,,CLR,0.00,VWS V14.00,2013-01-22 20:29:00,
2013-01-22 12:30:00,36.1,30.9,30.03,East,90,0.0,0.0,81,0.00,,CLR,0.00,VWS V14.00,2013-01-22 20:30:00,
2013-01-22 12:32:00,36.3,31.1,30.03,SSE,158,0.0,1.1,81,0.00,,CLR,0.00,VWS V14.00,2013-01-22 20:32:00,
2013-01-22 12:33:00,36.3,31.1,30.03,SSE,158,0.0,1.1,81,0.00,,CLR,0.00,VWS V14.00,2013-01-22 20:33:00,
2013-01-22 12:34:00,36.3,31.1,30.03,East,90,0.0,1.1,81,0.00,,CLR,0.00,VWS V14.00,2013-01-22 20:34:00,
2013-01-22 12:35:00,36.3,31.1,30.03,East,90,0.0,1.1,81,0.00,,CLR,0.00,VWS V14.00,2013-01-22 20:35:00,
2013-01-22 12:37:00,36.5,31.2,30.03,ESE,112,0.0,1.1,81,0.00,,CLR,0.00,VWS V14.00,2013-01-22 20:37:00,
2013-01-22 12:38:00,36.5,31.2,30.03,ESE,112,0.0,1.1,81,0.00,,CLR,0.00,VWS V14.00,2013-01-22 20:38:00,
2013-01-22 12:39:00,36.3,31.1,30.03,ENE,68,2.5,2.5,81,0.00,,CLR,0.00,VWS V14.00,2013-01-22 20:39:00,
2013-01-22 12:40:00,36.3,31.1,30.03,ENE,68,2.5,2.5,81,0.00,,CLR,0.00,VWS V14.00,2013-01-22 20:40:00,
2013-01-22 12:43:00,36.5,30.9,30.03,NE,45,0.0,2.5,80,0.00,,CLR,0.00,VWS V14.00,2013-01-22 20:43:00,
2013-01-22 12:44:00,36.5,30.9,30.03,NE,45,0.0,2.5,80,0.00,,CLR,0.00,VWS V14.00,2013-01-22 20:44:00,
2013-01-22 12:45:00,36.5,30.9,30.03,ENE,68,0.0,2.5,80,0.00,,CLR,0.00,VWS V14.00,2013-01-22 20:45:00,
2013-01-22 12:48:00,36.3,30.8,30.03,NNE,22,0.0,2.5,80,0.00,,CLR,0.00,VWS V14.00,2013-01-22 20:48:00,
2013-01-22 12:50:00,36.3,30.8,30.03,ENE,68,0.0,2.5,80,0.00,,CLR,0.00,VWS V14.00,2013-01-22 20:50:00,
2013-01-22 12:53:00,36.3,30.8,30.03,NE,45,0.0,2.5,80,0.00,,CLR,0.00,VWS V14.00,2013-01-22 20:53:00,
2013-01-22 12:55:00,36.5,30.9,30.03,East,90,2.0,2.5,80,0.00,,CLR,0.00,VWS V14.00,2013-01-22 20:55:00,
2013-01-22 12:58:00,36.3,30.8,30.03,East,90,0.0,2.0,80,0.00,,CLR,0.00,VWS V14.00,2013-01-22 20:58:00,
2013-01-22 13:00:00,36.5,30.9,30.03,East,90,0.0,2.0,80,0.00,,CLR,0.00,VWS V14.00,2013-01-22 21:00:00,
2013-01-22 13:03:00,36.5,30.9,30.03,ESE,112,0.0,2.0,80,0.00,,CLR,0.00,VWS V14.00,2013-01-22 21:03:00,
2013-01-22 13:05:00,36.7,31.1,30.03,SSE,158,0.0,2.0,80,0.00,,CLR,0.00,VWS V14.00,2013-01-22 21:05:00,
2013-01-22 13:08:00,36.9,31.3,30.03,East,90,0.0,2.0,80,0.00,,CLR,0.00,VWS V14.00,2013-01-22 21:08:00,
2013-01-22 13:10:00,36.9,31.3,30.03,East,90,0.0,2.0,80,0.00,,CLR,0.00,VWS V14.00,2013-01-22 21:10:00,
2013-01-22 13:13:00,37.0,31.5,30.03,NE,45,0.0,1.3,80,0.00,,CLR,0.00,VWS V14.00,2013-01-22 21:13:00,
2013-01-22 13:15:00,37.2,31.6,30.03,NE,45,2.5,3.8,80,0.00,,CLR,0.00,VWS V14.00,2013-01-22 21:15:00,
2013-01-22 13:18:00,37.4,31.2,30.03,ENE,68,3.1,3.8,78,0.00,,CLR,0.00,VWS V14.00,2013-01-22 21:18:00,
2013-01-22 13:20:00,37.4,31.2,30.03,NE,45,1.3,3.8,78,0.00,,CLR,0.00,VWS V14.00,2013-01-22 21:20:00,
2013-01-22 13:23:00,37.6,31.4,30.00,WSW,248,0.0,3.8,78,0.00,,CLR,0.00,VWS V14.00,2013-01-22 21:23:00,
2013-01-22 13:25:00,37.6,31.4,30.00,WSW,248,0.0,3.8,78,0.00,,CLR,0.00,VWS V14.00,2013-01-22 21:25:00,
2013-01-22 13:28:00,37.4,31.5,30.00,East,90,3.4,3.8,79,0.00,,CLR,0.00,VWS V14.00,2013-01-22 21:28:00,
2013-01-22 13:29:00,37.4,31.5,30.00,East,90,3.4,3.8,79,0.00,,CLR,0.00,VWS V14.00,2013-01-22 21:29:00,
2013-01-22 13:30:00,37.2,31.3,30.00,ENE,68,0.0,3.8,79,0.00,,CLR,0.00,VWS V14.00,2013-01-22 21:30:00,
2013-01-22 13:31:00,37.2,31.3,30.00,ESE,112,6.7,6.7,79,0.00,,CLR,0.00,VWS V14.00,2013-01-22 21:31:00,
2013-01-22 13:32:00,37.2,31.3,30.00,ENE,68,2.9,6.7,79,0.00,,CLR,0.00,VWS V14.00,2013-01-22 21:32:00,
2013-01-22 13:33:00,37.0,31.1,30.00,NNE,22,1.6,6.7,79,0.00,,CLR,0.00,VWS V14.00,2013-01-22 21:33:00,
2013-01-22 13:34:00,37.0,31.1,30.00,East,90,3.6,6.7,79,0.00,,CLR,0.00,VWS V14.00,2013-01-22 21:34:00,
2013-01-22 13:37:00,37.0,31.1,30.00,NE,45,3.4,6.7,79,0.00,,CLR,0.00,VWS V14.00,2013-01-22 21:37:00,
2013-01-22 13:38:00,36.9,30.6,30.00,ENE,68,0.0,6.7,78,0.00,,CLR,0.00,VWS V14.00,2013-01-22 21:38:00,
2013-01-22 13:39:00,37.0,31.1,30.00,SE,135,0.9,6.7,79,0.00,,CLR,0.00,VWS V14.00,2013-01-22 21:39:00,
2013-01-22 13:42:00,37.0,31.1,30.00,ENE,68,0.0,6.7,79,0.00,,CLR,0.00,VWS V14.00,2013-01-22 21:42:00,
2013-01-22 13:43:00,37.0,31.1,30.00,East,90,0.0,6.7,79,0.00,,CLR,0.00,VWS V14.00,2013-01-22 21:43:00,
2013-01-22 13:44:00,37.0,31.1,30.00,East,90,0.0,6.7,79,0.00,,CLR,0.00,VWS V14.00,2013-01-22 21:44:00,
2013-01-22 13:47:00,37.0,31.1,30.00,East,90,3.4,6.7,79,0.00,,CLR,0.00,VWS V14.00,2013-01-22 21:47:00,
2013-01-22 13:48:00,37.0,31.1,30.00,East,90,5.4,5.4,79,0.00,,CLR,0.00,VWS V14.00,2013-01-22 21:48:00,
2013-01-22 13:49:00,37.0,31.1,30.00,ESE,112,5.8,5.8,79,0.00,,CLR,0.00,VWS V14.00,2013-01-22 21:49:00,
2013-01-22 13:52:00,37.0,31.1,30.00,ESE,112,3.1,5.8,79,0.00,,CLR,0.00,VWS V14.00,2013-01-22 21:52:00,
2013-01-22 13:53:00,36.9,31.0,30.00,East,90,0.0,5.8,79,0.00,,CLR,0.00,VWS V14.00,2013-01-22 21:53:00,
2013-01-22 13:54:00,36.9,31.0,30.00,East,90,0.0,5.8,79,0.00,,CLR,0.00,VWS V14.00,2013-01-22 21:54:00,
2013-01-22 13:57:00,36.9,30.6,30.00,East,90,3.4,5.8,78,0.00,,CLR,0.00,VWS V14.00,2013-01-22 21:57:00,
2013-01-22 13:58:00,36.9,30.6,30.00,East,90,3.4,5.8,78,0.00,,CLR,0.00,VWS V14.00,2013-01-22 21:58:00,
2013-01-22 13:59:00,36.9,30.6,30.00,NE,45,1.6,5.8,78,0.00,,CLR,0.00,VWS V14.00,2013-01-22 21:59:00,
2013-01-22 14:02:00,37.0,30.8,30.00,SSW,202,0.0,5.8,78,0.00,,CLR,0.00,VWS V14.00,2013-01-22 22:02:00,
2013-01-22 14:03:00,37.0,30.8,30.00,East,90,0.0,5.8,78,0.00,,CLR,0.00,VWS V14.00,2013-01-22 22:03:00,
2013-01-22 14:04:00,37.0,31.1,30.00,ESE,112,0.0,5.8,79,0.00,,CLR,0.00,VWS V14.00,2013-01-22 22:04:00,
2013-01-22 14:07:00,37.0,31.1,30.00,ESE,112,0.0,3.4,79,0.00,,CLR,0.00,VWS V14.00,2013-01-22 22:07:00,
2013-01-22 14:08:00,37.0,31.1,30.00,ESE,112,0.0,3.4,79,0.00,,CLR,0.00,VWS V14.00,2013-01-22 22:08:00,
2013-01-22 14:09:00,37.0,31.1,30.00,ESE,112,0.0,3.4,79,0.00,,CLR,0.00,VWS V14.00,2013-01-22 22:09:00,
2013-01-22 14:12:00,37.4,31.5,30.00,East,90,0.0,3.4,79,0.00,,CLR,0.00,VWS V14.00,2013-01-22 22:12:00,
2013-01-22 14:13:00,37.4,31.2,30.00,East,90,0.0,3.4,78,0.00,,CLR,0.00,VWS V14.00,2013-01-22 22:13:00,
2013-01-22 14:14:00,37.4,31.2,30.00,East,90,0.0,3.4,78,0.00,,CLR,0.00,VWS V14.00,2013-01-22 22:14:00,
2013-01-22 14:17:00,37.6,31.4,30.00,East,90,0.0,1.6,78,0.00,,CLR,0.00,VWS V14.00,2013-01-22 22:17:00,
2013-01-22 14:18:00,37.6,31.4,30.00,East,90,0.0,0.0,78,0.00,,CLR,0.00,VWS V14.00,2013-01-22 22:18:00,
2013-01-22 14:19:00,37.6,31.4,30.00,East,90,0.0,0.0,78,0.00,,CLR,0.00,VWS V14.00,2013-01-22 22:19:00,
2013-01-22 14:22:00,37.8,31.5,30.00,East,90,0.0,0.0,78,0.00,,CLR,0.00,VWS V14.00,2013-01-22 22:22:00,
2013-01-22 14:23:00,37.8,31.5,30.00,East,90,0.0,0.0,78,0.00,,CLR,0.00,VWS V14.00,2013-01-22 22:23:00,
2013-01-22 14:24:00,37.8,31.5,30.00,East,90,0.0,0.0,78,0.00,,CLR,0.00,VWS V14.00,2013-01-22 22:24:00,
2013-01-22 14:28:00,37.9,31.7,30.00,ENE,68,0.0,0.0,78,0.00,,CLR,0.00,VWS V14.00,2013-01-22 22:28:00,
2013-01-22 14:29:00,37.9,31.7,30.00,ENE,68,0.0,0.0,78,0.00,,CLR,0.00,VWS V14.00,2013-01-22 22:29:00,
2013-01-22 14:33:00,37.9,31.7,30.00,ENE,68,0.0,0.0,78,0.00,,CLR,0.00,VWS V14.00,2013-01-22 22:33:00,
2013-01-22 14:34:00,37.9,31.7,30.00,ENE,68,0.0,0.0,78,0.00,,CLR,0.00,VWS V14.00,2013-01-22 22:34:00,
2013-01-22 14:38:00,38.1,31.6,30.00,East,90,0.0,0.0,77,0.00,,CLR,0.00,VWS V14.00,2013-01-22 22:38:00,
2013-01-22 14:39:00,38.1,31.6,30.00,East,90,0.0,0.0,77,0.00,,CLR,0.00,VWS V14.00,2013-01-22 22:39:00,
2013-01-22 14:43:00,38.1,31.6,30.00,NE,45,0.0,0.0,77,0.00,,CLR,0.00,VWS V14.00,2013-01-22 22:43:00,
2013-01-22 14:44:00,38.3,31.7,30.00,NE,45,0.0,0.0,77,0.00,,CLR,0.00,VWS V14.00,2013-01-22 22:44:00,
2013-01-22 14:48:00,38.5,31.9,30.00,NE,45,0.0,0.0,77,0.00,,CLR,0.00,VWS V14.00,2013-01-22 22:48:00,
2013-01-22 14:49:00,38.3,31.7,30.00,East,90,0.0,0.0,77,0.00,,CLR,0.00,VWS V14.00,2013-01-22 22:49:00,
2013-01-22 14:50:00,38.3,31.7,30.00,East,90,0.0,0.0,77,0.00,,CLR,0.00,VWS V14.00,2013-01-22 22:50:00,
2013-01-22 14:53:00,38.3,31.7,30.00,East,90,0.0,0.0,77,0.00,,CLR,0.00,VWS V14.00,2013-01-22 22:53:00,
2013-01-22 14:55:00,38.3,31.7,30.00,East,90,0.0,0.0,77,0.00,,CLR,0.00,VWS V14.00,2013-01-22 22:55:00,
2013-01-22 14:58:00,38.3,31.7,30.00,West,270,0.0,0.0,77,0.00,,CLR,0.00,VWS V14.00,2013-01-22 22:58:00,
2013-01-22 15:00:00,38.3,31.7,30.00,WNW,292,0.0,0.0,77,0.00,,CLR,0.00,VWS V14.00,2013-01-22 23:00:00,
2013-01-22 15:03:00,38.3,31.7,30.00,WNW,292,0.0,0.0,77,0.00,,CLR,0.00,VWS V14.00,2013-01-22 23:03:00,
2013-01-22 15:05:00,38.3,31.7,30.00,WNW,292,0.0,0.0,77,0.00,,CLR,0.00,VWS V14.00,2013-01-22 23:05:00,
2013-01-22 15:08:00,38.3,31.4,29.97,WNW,292,0.0,0.0,76,0.00,,CLR,0.00,VWS V14.00,2013-01-22 23:08:00,
2013-01-22 15:10:00,38.1,31.6,29.97,West,270,0.0,0.0,77,0.00,,CLR,0.00,VWS V14.00,2013-01-22 23:10:00,
2013-01-22 15:13:00,38.1,31.6,29.97,WNW,292,0.0,0.0,77,0.00,,CLR,0.00,VWS V14.00,2013-01-22 23:13:00,
2013-01-22 15:15:00,38.1,31.6,29.97,ENE,68,0.0,0.0,77,0.00,,CLR,0.00,VWS V14.00,2013-01-22 23:15:00,
2013-01-22 15:18:00,37.9,31.7,29.97,SSW,202,0.0,0.0,78,0.00,,CLR,0.00,VWS V14.00,2013-01-22 23:18:00,
2013-01-22 15:20:00,37.8,31.5,29.97,East,90,0.0,0.0,78,0.00,,CLR,0.00,VWS V14.00,2013-01-22 23:20:00,
2013-01-22 15:23:00,37.6,31.7,30.00,East,90,0.0,0.0,79,0.00,,CLR,0.00,VWS V14.00,2013-01-22 23:23:00,
2013-01-22 15:24:00,37.6,31.7,30.00,East,90,0.0,0.0,79,0.00,,CLR,0.00,VWS V14.00,2013-01-22 23:24:00,
2013-01-22 15:25:00,37.6,31.7,30.00,ESE,112,0.0,0.0,79,0.00,,CLR,0.00,VWS V14.00,2013-01-22 23:25:00,
2013-01-22 15:28:00,37.6,31.7,30.00,ESE,112,0.0,0.0,79,0.00,,CLR,0.00,VWS V14.00,2013-01-22 23:28:00,
2013-01-22 15:29:00,37.6,31.7,30.00,ESE,112,0.0,0.0,79,0.00,,CLR,0.00,VWS V14.00,2013-01-22 23:29:00,
2013-01-22 15:30:00,37.6,31.7,30.00,ESE,112,0.0,0.0,79,0.00,,CLR,0.00,VWS V14.00,2013-01-22 23:30:00,
2013-01-22 15:33:00,37.6,31.7,30.00,ESE,112,0.0,0.0,79,0.00,,CLR,0.00,VWS V14.00,2013-01-22 23:33:00,
2013-01-22 15:34:00,37.6,31.7,30.00,ESE,112,0.0,0.0,79,0.00,,CLR,0.00,VWS V14.00,2013-01-22 23:34:00,
2013-01-22 15:35:00,37.6,31.7,30.00,ESE,112,0.0,0.0,79,0.00,,CLR,0.00,VWS V14.00,2013-01-22 23:35:00,
2013-01-22 15:38:00,37.4,31.5,29.97,East,90,0.0,0.0,79,0.00,,CLR,0.00,VWS V14.00,2013-01-22 23:38:00,
2013-01-22 15:39:00,37.4,31.5,29.97,East,90,0.0,0.0,79,0.00,,CLR,0.00,VWS V14.00,2013-01-22 23:39:00,
2013-01-22 15:40:00,37.4,31.5,29.97,ESE,112,0.0,0.0,79,0.00,,CLR,0.00,VWS V14.00,2013-01-22 23:40:00,
2013-01-22 15:43:00,37.4,31.5,29.97,ESE,112,0.0,0.0,79,0.00,,CLR,0.00,VWS V14.00,2013-01-22 23:43:00,
2013-01-22 15:44:00,37.4,31.5,29.97,ESE,112,0.0,0.0,79,0.00,,CLR,0.00,VWS V14.00,2013-01-22 23:44:00,
2013-01-22 15:45:00,37.2,31.3,29.97,ESE,112,0.0,0.0,79,0.00,,CLR,0.00,VWS V14.00,2013-01-22 23:45:00,
2013-01-22 15:48:00,37.2,31.3,29.97,ESE,112,0.0,0.0,79,0.00,,CLR,0.00,VWS V14.00,2013-01-22 23:48:00,
2013-01-22 15:49:00,37.2,31.3,29.97,ESE,112,0.0,0.0,79,0.00,,CLR,0.00,VWS V14.00,2013-01-22 23:49:00,
2013-01-22 15:50:00,37.0,31.1,29.97,ESE,112,0.0,0.0,79,0.00,,CLR,0.00,VWS V14.00,2013-01-22 23:50:00,
2013-01-22 15:53:00,37.0,31.1,29.97,ESE,112,0.0,0.0,79,0.00,,CLR,0.00,VWS V14.00,2013-01-22 23:53:00,
2013-01-22 15:54:00,37.0,31.1,29.97,ESE,112,0.0,0.0,79,0.00,,CLR,0.00,VWS V14.00,2013-01-22 23:54:00,
2013-01-22 15:55:00,37.0,31.1,29.97,ESE,112,0.0,0.0,79,0.00,,CLR,0.00,VWS V14.00,2013-01-22 23:55:00,
2013-01-22 15:59:00,36.9,31.0,29.97,ESE,112,0.0,0.0,79,0.00,,CLR,0.00,VWS V14.00,2013-01-22 23:59:00,
2013-01-22 16:00:00,36.9,31.0,29.97,ESE,112,0.0,0.0,79,0.00,,CLR,0.00,VWS V14.00,2013-01-23 00:00:00,
2013-01-22 16:04:00,36.7,31.1,29.97,East,90,0.0,0.0,80,0.00,,CLR,0.00,VWS V14.00,2013-01-23 00:04:00,
2013-01-22 16:05:00,36.7,31.1,29.97,East,90,0.0,0.0,80,0.00,,CLR,0.00,VWS V14.00,2013-01-23 00:05:00,
2013-01-22 16:09:00,36.7,30.8,29.97,East,90,0.0,0.0,79,0.00,,CLR,0.00,VWS V14.00,2013-01-23 00:09:00,
2013-01-22 16:10:00,36.7,30.8,29.97,East,90,0.0,0.0,79,0.00,,CLR,0.00,VWS V14.00,2013-01-23 00:10:00,
2013-01-22 16:14:00,36.7,30.8,29.97,ESE,112,0.0,2.7,79,0.00,,CLR,0.00,VWS V14.00,2013-01-23 00:14:00,
2013-01-22 16:15:00,36.7,30.8,29.97,East,90,0.0,2.7,79,0.00,,CLR,0.00,VWS V14.00,2013-01-23 00:15:00,
2013-01-22 16:19:00,36.7,30.8,29.97,ESE,112,0.0,2.7,79,0.00,,CLR,0.00,VWS V14.00,2013-01-23 00:19:00,
2013-01-22 16:20:00,36.7,30.8,29.97,ESE,112,0.0,2.7,79,0.00,,CLR,0.00,VWS V14.00,2013-01-23 00:20:00,
2013-01-22 16:24:00,36.5,30.6,29.97,ESE,112,0.0,2.7,79,0.00,,CLR,0.00,VWS V14.00,2013-01-23 00:24:00,
2013-01-22 16:25:00,36.5,30.6,29.97,ESE,112,0.0,2.7,79,0.00,,CLR,0.00,VWS V14.00,2013-01-23 00:25:00,
2013-01-22 16:29:00,36.5,30.6,29.97,ESE,112,0.0,0.0,79,0.00,,CLR,0.00,VWS V14.00,2013-01-23 00:29:00,
2013-01-22 16:30:00,36.5,30.6,29.97,ESE,112,0.0,0.0,79,0.00,,CLR,0.00,VWS V14.00,2013-01-23 00:30:00,
2013-01-22 16:34:00,36.3,30.4,29.97,ESE,112,0.0,0.0,79,0.00,,CLR,0.00,VWS V14.00,2013-01-23 00:34:00,
2013-01-22 16:35:00,36.3,30.4,29.97,ESE,112,0.0,0.0,79,0.00,,CLR,0.00,VWS V14.00,2013-01-23 00:35:00,
2013-01-22 16:39:00,36.3,30.4,29.97,ESE,112,0.0,0.0,79,0.00,,CLR,0.00,VWS V14.00,2013-01-23 00:39:00,
2013-01-22 16:40:00,36.3,30.4,29.97,ESE,112,0.0,0.0,79,0.00,,CLR,0.00,VWS V14.00,2013-01-23 00:40:00,
2013-01-22 16:44:00,36.3,30.4,29.97,ESE,112,0.0,0.0,79,0.00,,CLR,0.00,VWS V14.00,2013-01-23 00:44:00,
2013-01-22 16:45:00,36.3,30.4,29.97,SSW,202,0.0,0.0,79,0.00,,CLR,0.00,VWS V14.00,2013-01-23 00:45:00,
2013-01-22 16:49:00,36.3,30.4,29.97,ESE,112,0.0,0.0,79,0.00,,CLR,0.00,VWS V14.00,2013-01-23 00:49:00,
2013-01-22 16:50:00,36.3,30.4,29.97,ESE,112,0.0,0.0,79,0.00,,CLR,0.00,VWS V14.00,2013-01-23 00:50:00,
2013-01-22 16:51:00,36.3,30.4,29.97,ESE,112,0.0,0.0,79,0.00,,CLR,0.00,VWS V14.00,2013-01-23 00:51:00,
2013-01-22 16:54:00,36.3,30.4,29.94,ESE,112,0.0,0.0,79,0.00,,CLR,0.00,VWS V14.00,2013-01-23 00:54:00,
2013-01-22 16:56:00,36.3,30.4,29.94,ESE,112,0.0,0.0,79,0.00,,CLR,0.00,VWS V14.00,2013-01-23 00:56:00,
2013-01-22 16:59:00,36.3,30.4,29.94,ESE,112,0.0,0.0,79,0.00,,CLR,0.00,VWS V14.00,2013-01-23 00:59:00,
2013-01-22 17:01:00,36.1,30.3,29.94,SE,135,0.0,0.0,79,0.00,,CLR,0.00,VWS V14.00,2013-01-23 01:01:00,
2013-01-22 17:04:00,36.0,30.1,29.94,SE,135,0.0,0.0,79,0.00,,CLR,0.00,VWS V14.00,2013-01-23 01:04:00,
2013-01-22 17:05:00,35.8,29.9,29.94,SE,135,0.0,0.0,79,0.00,,CLR,0.00,VWS V14.00,2013-01-23 01:05:00,
2013-01-22 17:06:00,35.8,29.9,29.94,SE,135,0.0,0.0,79,0.00,,CLR,0.00,VWS V14.00,2013-01-23 01:06:00,
2013-01-22 17:09:00,35.8,29.9,29.94,ESE,112,0.0,0.0,79,0.00,,CLR,0.00,VWS V14.00,2013-01-23 01:09:00,
2013-01-22 17:10:00,35.8,29.9,29.94,ENE,68,0.0,0.0,79,0.00,,CLR,0.00,VWS V14.00,2013-01-23 01:10:00,
2013-01-22 17:11:00,35.8,29.9,29.94,ENE,68,0.0,0.0,79,0.00,,CLR,0.00,VWS V14.00,2013-01-23 01:11:00,
2013-01-22 17:14:00,35.8,29.6,29.94,ESE,112,0.0,0.0,78,0.00,,CLR,0.00,VWS V14.00,2013-01-23 01:14:00,
2013-01-22 17:15:00,35.8,29.6,29.94,ESE,112,0.0,0.0,78,0.00,,CLR,0.00,VWS V14.00,2013-01-23 01:15:00,
2013-01-22 17:16:00,35.8,29.6,29.94,East,90,0.0,0.0,78,0.00,,CLR,0.00,VWS V14.00,2013-01-23 01:16:00,
2013-01-22 17:19:00,35.6,29.7,29.94,East,90,0.0,0.0,79,0.00,,CLR,0.00,VWS V14.00,2013-01-23 01:19:00,
2013-01-22 17:20:00,35.6,29.7,29.94,East,90,0.0,0.0,79,0.00,,CLR,0.00,VWS V14.00,2013-01-23 01:20:00,
2013-01-22 17:21:00,35.6,29.7,29.94,East,90,0.0,0.0,79,0.00,,CLR,0.00,VWS V14.00,2013-01-23 01:21:00,
2013-01-22 17:24:00,35.4,29.6,29.94,East,90,0.0,0.0,79,0.00,,CLR,0.00,VWS V14.00,2013-01-23 01:24:00,
2013-01-22 17:25:00,35.4,29.6,29.94,East,90,0.0,0.0,79,0.00,,CLR,0.00,VWS V14.00,2013-01-23 01:25:00,
2013-01-22 17:26:00,35.4,29.6,29.94,WSW,248,0.0,0.0,79,0.00,,CLR,0.00,VWS V14.00,2013-01-23 01:26:00,
2013-01-22 17:29:00,35.4,29.6,29.94,SSW,202,0.0,0.0,79,0.00,,CLR,0.00,VWS V14.00,2013-01-23 01:29:00,
2013-01-22 17:30:00,35.4,29.6,29.94,SSW,202,0.0,0.0,79,0.00,,CLR,0.00,VWS V14.00,2013-01-23 01:30:00,
2013-01-22 17:32:00,35.4,29.6,29.94,SW,225,0.0,0.0,79,0.00,,CLR,0.00,VWS V14.00,2013-01-23 01:32:00,
2013-01-22 17:34:00,35.4,29.9,29.94,East,90,0.0,0.0,80,0.00,,CLR,0.00,VWS V14.00,2013-01-23 01:34:00,
2013-01-22 17:35:00,35.4,29.9,29.94,East,90,0.0,0.0,80,0.00,,CLR,0.00,VWS V14.00,2013-01-23 01:35:00,
2013-01-22 17:37:00,35.4,29.9,29.94,East,90,0.0,0.0,80,0.00,,CLR,0.00,VWS V14.00,2013-01-23 01:37:00,
2013-01-22 17:39:00,35.4,29.6,29.94,East,90,0.0,0.0,79,0.00,,CLR,0.00,VWS V14.00,2013-01-23 01:39:00,
2013-01-22 17:40:00,35.4,29.6,29.94,East,90,0.0,0.0,79,0.00,,CLR,0.00,VWS V14.00,2013-01-23 01:40:00,
2013-01-22 17:42:00,35.6,29.7,29.94,East,90,0.0,0.0,79,0.00,,CLR,0.00,VWS V14.00,2013-01-23 01:42:00,
2013-01-22 17:44:00,35.4,29.6,29.94,East,90,0.0,0.0,79,0.00,,CLR,0.00,VWS V14.00,2013-01-23 01:44:00,
2013-01-22 17:45:00,35.4,29.6,29.94,ESE,112,0.0,0.0,79,0.00,,CLR,0.00,VWS V14.00,2013-01-23 01:45:00,
2013-01-22 17:47:00,35.4,29.6,29.94,ESE,112,0.0,0.0,79,0.00,,CLR,0.00,VWS V14.00,2013-01-23 01:47:00,
2013-01-22 17:50:00,35.4,29.6,29.94,ESE,112,0.0,0.0,79,0.00,,CLR,0.00,VWS V14.00,2013-01-23 01:50:00,
2013-01-22 17:52:00,35.4,29.9,29.94,ESE,112,0.0,0.0,80,0.00,,CLR,0.00,VWS V14.00,2013-01-23 01:52:00,
2013-01-22 17:55:00,35.4,29.9,29.94,WSW,248,0.0,0.0,80,0.00,,CLR,0.00,VWS V14.00,2013-01-23 01:55:00,
2013-01-22 17:57:00,35.6,29.7,29.94,East,90,0.0,0.0,79,0.00,,CLR,0.00,VWS V14.00,2013-01-23 01:57:00,
2013-01-22 18:00:00,35.4,29.9,29.94,East,90,0.0,0.0,80,0.00,,CLR,0.00,VWS V14.00,2013-01-23 02:00:00,
2013-01-22 18:02:00,35.6,29.7,29.94,East,90,0.0,0.0,79,0.00,,CLR,0.00,VWS V14.00,2013-01-23 02:02:00,
2013-01-22 18:03:00,35.6,29.7,29.94,East,90,0.0,0.0,79,0.00,,CLR,0.00,VWS V14.00,2013-01-23 02:03:00,
2013-01-22 18:05:00,35.4,29.9,29.94,East,90,0.0,0.0,80,0.00,,CLR,0.00,VWS V14.00,2013-01-23 02:05:00,
2013-01-22 18:07:00,35.4,29.9,29.94,WSW,248,0.0,0.0,80,0.00,,CLR,0.00,VWS V14.00,2013-01-23 02:07:00,
2013-01-22 18:08:00,35.6,29.7,29.94,WSW,248,0.0,0.0,79,0.00,,CLR,0.00,VWS V14.00,2013-01-23 02:08:00,
2013-01-22 18:10:00,35.6,29.7,29.94,West,270,0.0,0.0,79,0.00,,CLR,0.00,VWS V14.00,2013-01-23 02:10:00,
2013-01-22 18:11:00,35.6,29.7,29.94,ESE,112,0.0,0.0,79,0.00,,CLR,0.00,VWS V14.00,2013-01-23 02:11:00,
2013-01-22 18:12:00,35.6,29.7,29.94,SW,225,0.0,0.0,79,0.00,,CLR,0.00,VWS V14.00,2013-01-23 02:12:00,
2013-01-22 18:13:00,35.6,29.7,29.94,SW,225,0.0,0.0,79,0.00,,CLR,0.00,VWS V14.00,2013-01-23 02:13:00,
2013-01-22 18:15:00,35.6,29.7,29.94,SW,225,0.0,0.0,79,0.00,,CLR,0.00,VWS V14.00,2013-01-23 02:15:00,
2013-01-22 18:16:00,35.6,29.7,29.94,West,270,0.0,0.0,79,0.00,,CLR,0.00,VWS V14.00,2013-01-23 02:16:00,
2013-01-22 18:17:00,35.6,29.7,29.94,ESE,112,0.0,0.0,79,0.00,,CLR,0.00,VWS V14.00,2013-01-23 02:17:00,
2013-01-22 18:18:00,35.6,29.7,29.94,ESE,112,0.0,0.0,79,0.00,,CLR,0.00,VWS V14.00,2013-01-23 02:18:00,
2013-01-22 18:20:00,35.6,30.0,29.94,SSE,158,0.0,0.0,80,0.00,,CLR,0.00,VWS V14.00,2013-01-23 02:20:00,
2013-01-22 18:21:00,35.6,30.0,29.94,SE,135,0.0,0.0,80,0.00,,CLR,0.00,VWS V14.00,2013-01-23 02:21:00,
2013-01-22 18:22:00,35.6,30.0,29.94,ESE,112,0.0,0.0,80,0.00,,CLR,0.00,VWS V14.00,2013-01-23 02:22:00,
2013-01-22 18:23:00,35.6,30.0,29.94,ESE,112,0.0,0.0,80,0.00,,CLR,0.00,VWS V14.00,2013-01-23 02:23:00,
2013-01-22 18:25:00,35.6,30.0,29.94,ESE,112,0.0,0.0,80,0.00,,CLR,0.00,VWS V14.00,2013-01-23 02:25:00,
2013-01-22 18:26:00,35.4,29.9,29.94,ESE,112,0.0,0.0,80,0.00,,CLR,0.00,VWS V14.00,2013-01-23 02:26:00,
2013-01-22 18:27:00,35.4,29.9,29.94,ESE,112,0.0,0.0,80,0.00,,CLR,0.00,VWS V14.00,2013-01-23 02:27:00,
2013-01-22 18:28:00,35.4,29.9,29.94,ESE,112,0.0,0.0,80,0.00,,CLR,0.00,VWS V14.00,2013-01-23 02:28:00,
2013-01-22 18:30:00,35.4,29.9,29.94,East,90,2.2,2.2,80,0.00,,CLR,0.00,VWS V14.00,2013-01-23 02:30:00,
2013-01-22 18:31:00,35.4,29.9,29.94,East,90,0.0,2.2,80,0.00,,CLR,0.00,VWS V14.00,2013-01-23 02:31:00,
2013-01-22 18:33:00,35.4,29.9,29.94,ESE,112,0.0,2.2,80,0.00,,CLR,0.00,VWS V14.00,2013-01-23 02:33:00,
2013-01-22 18:35:00,35.4,29.9,29.94,ESE,112,0.0,2.2,80,0.00,,CLR,0.00,VWS V14.00,2013-01-23 02:35:00,
2013-01-22 18:36:00,35.4,29.9,29.94,ESE,112,0.0,2.2,80,0.00,,CLR,0.00,VWS V14.00,2013-01-23 02:36:00,
2013-01-22 18:38:00,35.4,29.9,29.94,ESE,112,0.0,2.2,80,0.00,,CLR,0.00,VWS V14.00,2013-01-23 02:38:00,
2013-01-22 18:40:00,35.4,29.9,29.94,ESE,112,0.0,2.2,80,0.00,,CLR,0.00,VWS V14.00,2013-01-23 02:40:00,
2013-01-22 18:41:00,35.4,29.9,29.94,ESE,112,0.0,2.2,80,0.00,,CLR,0.00,VWS V14.00,2013-01-23 02:41:00,
2013-01-22 18:43:00,35.4,30.2,29.94,ESE,112,0.0,2.2,81,0.00,,CLR,0.00,VWS V14.00,2013-01-23 02:43:00,
2013-01-22 18:45:00,35.4,30.2,29.94,ESE,112,0.0,2.2,81,0.00,,CLR,0.00,VWS V14.00,2013-01-23 02:45:00,
2013-01-22 18:46:00,35.4,30.2,29.94,ESE,112,0.0,2.2,81,0.00,,CLR,0.00,VWS V14.00,2013-01-23 02:46:00,
2013-01-22 18:48:00,35.4,30.2,29.94,ESE,112,0.0,2.2,81,0.00,,CLR,0.00,VWS V14.00,2013-01-23 02:48:00,
2013-01-22 18:50:00,35.4,30.2,29.94,ESE,112,0.0,0.0,81,0.00,,CLR,0.00,VWS V14.00,2013-01-23 02:50:00,
2013-01-22 18:51:00,35.4,30.2,29.94,SSW,202,0.0,0.0,81,0.00,,CLR,0.00,VWS V14.00,2013-01-23 02:51:00,
2013-01-22 18:53:00,35.4,30.2,29.94,SW,225,0.0,0.0,81,0.00,,CLR,0.00,VWS V14.00,2013-01-23 02:53:00,
2013-01-22 18:55:00,35.6,30.0,29.94,SW,225,0.0,0.0,80,0.00,,CLR,0.00,VWS V14.00,2013-01-23 02:55:00,
2013-01-22 18:56:00,35.6,30.0,29.94,East,90,0.0,0.0,80,0.00,,CLR,0.00,VWS V14.00,2013-01-23 02:56:00,
2013-01-22 18:58:00,35.6,30.0,29.94,East,90,0.0,0.0,80,0.00,,CLR,0.00,VWS V14.00,2013-01-23 02:58:00,
2013-01-22 19:00:00,35.4,30.2,29.94,SSE,158,0.0,0.0,81,0.00,,CLR,0.00,VWS V14.00,2013-01-23 03:00:00,
2013-01-22 19:01:00,35.4,30.2,29.94,WSW,248,0.0,0.0,81,0.00,,CLR,0.00,VWS V14.00,2013-01-23 03:01:00,
2013-01-22 19:03:00,35.6,30.0,29.94,ESE,112,0.0,0.0,80,0.00,,CLR,0.00,VWS V14.00,2013-01-23 03:03:00,
2013-01-22 19:06:00,35.4,30.2,29.94,SSW,202,0.0,0.0,81,0.00,,CLR,0.00,VWS V14.00,2013-01-23 03:06:00,
2013-01-22 19:07:00,35.4,30.2,29.94,ESE,112,0.0,0.0,81,0.00,,CLR,0.00,VWS V14.00,2013-01-23 03:07:00,
2013-01-22 19:08:00,35.4,30.2,29.94,WSW,248,0.0,0.0,81,0.00,,CLR,0.00,VWS V14.00,2013-01-23 03:08:00,
2013-01-22 19:11:00,35.4,30.2,29.94,West,270,0.0,0.0,81,0.00,,CLR,0.00,VWS V14.00,2013-01-23 03:11:00,
2013-01-22 19:12:00,35.4,30.2,29.94,SSW,202,0.0,0.0,81,0.00,,CLR,0.00,VWS V14.00,2013-01-23 03:12:00,
2013-01-22 19:13:00,35.4,30.2,29.94,SSW,202,0.0,0.0,81,0.00,,CLR,0.00,VWS V14.00,2013-01-23 03:13:00,
2013-01-22 19:17:00,35.4,30.2,29.94,SSW,202,0.0,0.0,81,0.00,,CLR,0.00,VWS V14.00,2013-01-23 03:17:00,
2013-01-22 19:18:00,35.4,30.2,29.94,SSE,158,0.0,0.0,81,0.00,,CLR,0.00,VWS V14.00,2013-01-23 03:18:00,
2013-01-22 19:22:00,35.4,30.2,29.94,ESE,112,0.0,0.0,81,0.00,,CLR,0.00,VWS V14.00,2013-01-23 03:22:00,
2013-01-22 19:23:00,35.4,30.2,29.94,ESE,112,0.0,0.0,81,0.00,,CLR,0.00,VWS V14.00,2013-01-23 03:23:00,
2013-01-22 19:27:00,35.4,30.2,29.94,ESE,112,0.0,0.0,81,0.00,,CLR,0.00,VWS V14.00,2013-01-23 03:27:00,
2013-01-22 19:28:00,35.4,30.2,29.94,SSE,158,0.0,0.0,81,0.00,,CLR,0.00,VWS V14.00,2013-01-23 03:28:00,
2013-01-22 19:29:00,35.4,30.2,29.94,SE,135,0.0,0.0,81,0.00,,CLR,0.00,VWS V14.00,2013-01-23 03:29:00,
2013-01-22 19:32:00,35.4,30.2,29.94,SE,135,0.0,0.0,81,0.00,,CLR,0.00,VWS V14.00,2013-01-23 03:32:00,
2013-01-22 19:33:00,35.4,30.2,29.94,SE,135,0.0,0.0,81,0.00,,CLR,0.00,VWS V14.00,2013-01-23 03:33:00,
2013-01-22 19:34:00,35.4,30.2,29.94,SE,135,0.0,0.0,81,0.00,,CLR,0.00,VWS V14.00,2013-01-23 03:34:00,
2013-01-22 19:37:00,35.4,29.9,29.94,East,90,0.0,0.0,80,0.00,,CLR,0.00,VWS V14.00,2013-01-23 03:37:00,
2013-01-22 19:38:00,35.4,30.2,29.94,East,90,0.0,0.0,81,0.00,,CLR,0.00,VWS V14.00,2013-01-23 03:38:00,
2013-01-22 19:39:00,35.4,30.2,29.94,East,90,0.0,0.0,81,0.00,,CLR,0.00,VWS V14.00,2013-01-23 03:39:00,
2013-01-22 19:42:00,35.4,30.2,29.94,SSE,158,0.0,0.0,81,0.00,,CLR,0.00,VWS V14.00,2013-01-23 03:42:00,
2013-01-22 19:43:00,35.4,30.2,29.94,East,90,0.0,0.0,81,0.00,,CLR,0.00,VWS V14.00,2013-01-23 03:43:00,
2013-01-22 19:44:00,35.4,30.2,29.94,East,90,1.1,1.1,81,0.00,,CLR,0.00,VWS V14.00,2013-01-23 03:44:00,
2013-01-22 19:47:00,35.2,30.0,29.94,ESE,112,0.0,2.5,81,0.00,,CLR,0.00,VWS V14.00,2013-01-23 03:47:00,
2013-01-22 19:48:00,35.2,30.0,29.94,ESE,112,0.0,2.5,81,0.00,,CLR,0.00,VWS V14.00,2013-01-23 03:48:00,
2013-01-22 19:49:00,35.2,30.0,29.94,ESE,112,0.0,2.5,81,0.00,,CLR,0.00,VWS V14.00,2013-01-23 03:49:00,
2013-01-22 19:52:00,35.2,30.0,29.94,ESE,112,0.0,2.5,81,0.00,,CLR,0.00,VWS V14.00,2013-01-23 03:52:00,
2013-01-22 19:53:00,35.2,30.0,29.94,ESE,112,0.0,2.5,81,0.00,,CLR,0.00,VWS V14.00,2013-01-23 03:53:00,
2013-01-22 19:54:00,35.2,30.0,29.94,ESE,112,0.0,2.5,81,0.00,,CLR,0.00,VWS V14.00,2013-01-23 03:54:00,
2013-01-22 19:57:00,35.2,30.0,29.94,ESE,112,0.0,0.0,81,0.00,,CLR,0.00,VWS V14.00,2013-01-23 03:57:00,
2013-01-22 19:58:00,35.2,30.0,29.94,ESE,112,0.0,0.0,81,0.00,,CLR,0.00,VWS V14.00,2013-01-23 03:58:00,
2013-01-22 19:59:00,35.1,29.8,29.94,East,90,0.0,0.0,81,0.00,,CLR,0.00,VWS V14.00,2013-01-23 03:59:00,
2013-01-22 20:03:00,35.1,29.8,29.94,East,90,0.0,0.0,81,0.00,,CLR,0.00,VWS V14.00,2013-01-23 04:03:00,
2013-01-22 20:04:00,35.1,29.8,29.94,East,90,0.0,0.0,81,0.00,,CLR,0.00,VWS V14.00,2013-01-23 04:04:00,
2013-01-22 20:08:00,35.1,29.8,29.94,SE,135,0.0,0.0,81,0.00,,CLR,0.00,VWS V14.00,2013-01-23 04:08:00,
2013-01-22 20:09:00,35.1,29.8,29.94,SE,135,0.0,0.0,81,0.00,,CLR,0.00,VWS V14.00,2013-01-23 04:09:00,
2013-01-22 20:13:00,35.1,30.1,29.94,East,90,0.0,0.0,82,0.00,,CLR,0.00,VWS V14.00,2013-01-23 04:13:00,
2013-01-22 20:14:00,35.1,30.1,29.94,East,90,0.0,0.0,82,0.00,,CLR,0.00,VWS V14.00,2013-01-23 04:14:00,
2013-01-22 20:18:00,35.1,30.1,29.94,ESE,112,0.0,0.0,82,0.00,,CLR,0.00,VWS V14.00,2013-01-23 04:18:00,
2013-01-22 20:19:00,35.1,30.1,29.94,East,90,0.0,0.0,82,0.00,,CLR,0.00,VWS V14.00,2013-01-23 04:19:00,
2013-01-22 20:23:00,35.1,30.1,29.94,East,90,2.0,2.0,82,0.00,,CLR,0.00,VWS V14.00,2013-01-23 04:23:00,
2013-01-22 20:24:00,35.1,30.1,29.94,East,90,2.0,2.0,82,0.00,,CLR,0.00,VWS V14.00,2013-01-23 04:24:00,
2013-01-22 20:28:00,35.1,29.8,29.94,East,90,0.0,2.0,81,0.00,,CLR,0.00,VWS V14.00,2013-01-23 04:28:00,
2013-01-22 20:29:00,35.1,29.8,29.94,East,90,0.0,2.0,81,0.00,,CLR,0.00,VWS V14.00,2013-01-23 04:29:00,
2013-01-22 20:33:00,35.1,29.8,29.94,East,90,1.1,2.0,81,0.00,,CLR,0.00,VWS V14.00,2013-01-23 04:33:00,
2013-01-22 20:34:00,35.1,29.8,29.94,East,90,0.0,2.0,81,0.00,,CLR,0.00,VWS V14.00,2013-01-23 04:34:00,
2013-01-22 20:38:00,35.1,29.8,29.94,ESE,112,0.0,2.0,81,0.00,,CLR,0.00,VWS V14.00,2013-01-23 04:38:00,
2013-01-22 20:39:00,34.9,29.6,29.91,ESE,112,0.0,2.0,81,0.00,,CLR,0.00,VWS V14.00,2013-01-23 04:39:00,
2013-01-22 20:43:00,34.9,29.6,29.91,East,90,0.0,1.1,81,0.00,,CLR,0.00,VWS V14.00,2013-01-23 04:43:00,
2013-01-22 20:44:00,34.9,29.6,29.91,East,90,0.0,1.1,81,0.00,,CLR,0.00,VWS V14.00,2013-01-23 04:44:00,
2013-01-22 20:48:00,35.2,30.0,29.91,East,90,0.0,1.1,81,0.00,,CLR,0.00,VWS V14.00,2013-01-23 04:48:00,
2013-01-22 20:49:00,35.2,29.7,29.91,West,270,0.0,1.1,80,0.00,,CLR,0.00,VWS V14.00,2013-01-23 04:49:00,
2013-01-22 20:53:00,35.1,29.5,29.91,WNW,292,0.9,2.5,80,0.00,,CLR,0.00,VWS V14.00,2013-01-23 04:53:00,
2013-01-22 20:54:00,35.1,29.5,29.91,WNW,292,0.0,2.5,80,0.00,,CLR,0.00,VWS V14.00,2013-01-23 04:54:00,
2013-01-22 20:58:00,35.1,29.5,29.91,WSW,248,0.9,2.5,80,0.00,,CLR,0.00,VWS V14.00,2013-01-23 04:58:00,
2013-01-22 20:59:00,35.1,29.2,29.91,NW,315,2.9,2.9,79,0.00,,CLR,0.00,VWS V14.00,2013-01-23 04:59:00,
2013-01-22 21:01:00,35.2,29.4,29.91,NW,315,2.9,2.9,79,0.00,,CLR,0.00,VWS V14.00,2013-01-23 05:01:00,
2013-01-22 21:03:00,35.2,29.1,29.91,NNE,22,0.0,2.9,78,0.00,,CLR,0.00,VWS V14.00,2013-01-23 05:03:00,
2013-01-22 21:06:00,35.2,29.1,29.91,SE,135,0.9,2.9,78,0.00,,CLR,0.00,VWS V14.00,2013-01-23 05:06:00,
2013-01-22 21:07:00,35.2,29.1,29.91,SE,135,0.0,2.9,78,0.00,,CLR,0.00,VWS V14.00,2013-01-23 05:07:00,
2013-01-22 21:08:00,35.2,29.1,29.91,ESE,112,0.9,2.9,78,0.00,,CLR,0.00,VWS V14.00,2013-01-23 05:08:00,
2013-01-22 21:11:00,35.1,28.9,29.91,WSW,248,0.0,2.9,78,0.00,,CLR,0.00,VWS V14.00,2013-01-23 05:11:00,
2013-01-22 21:12:00,35.1,28.9,29.91,NW,315,0.0,2.9,78,0.00,,CLR,0.00,VWS V14.00,2013-01-23 05:12:00,
2013-01-22 21:13:00,35.1,28.6,29.91,West,270,0.9,2.9,77,0.00,,CLR,0.00,VWS V14.00,2013-01-23 05:13:00,
2013-01-22 21:16:00,35.1,28.6,29.91,WNW,292,0.0,2.9,77,0.00,,CLR,0.00,VWS V14.00,2013-01-23 05:16:00,
2013-01-22 21:17:00,35.1,28.6,29.91,SSW,202,2.7,2.9,77,0.00,,CLR,0.00,VWS V14.00,2013-01-23 05:17:00,
2013-01-22 21:18:00,35.1,28.6,29.91,WNW,292,0.0,2.9,77,0.00,,CLR,0.00,VWS V14.00,2013-01-23 05:18:00,
2013-01-22 21:21:00,35.1,28.6,29.91,NNE,22,0.0,2.7,77,0.00,,CLR,0.00,VWS V14.00,2013-01-23 05:21:00,
2013-01-22 21:22:00,35.1,28.6,29.91,NNE,22,0.0,2.7,77,0.00,,CLR,0.00,VWS V14.00,2013-01-23 05:22:00,
2013-01-22 21:23:00,35.1,28.6,29.91,ENE,68,0.0,2.7,77,0.00,,CLR,0.00,VWS V14.00,2013-01-23 05:23:00,
2013-01-22 21:26:00,35.1,28.6,29.91,East,90,2.7,2.7,77,0.00,,CLR,0.00,VWS V14.00,2013-01-23 05:26:00,
2013-01-22 21:27:00,35.1,28.6,29.91,ENE,68,0.0,2.7,77,0.00,,CLR,0.00,VWS V14.00,2013-01-23 05:27:00,
2013-01-22 21:28:00,35.1,28.6,29.91,ENE,68,0.0,2.7,77,0.00,,CLR,0.00,VWS V14.00,2013-01-23 05:28:00,
2013-01-22 21:31:00,34.9,28.7,29.91,ENE,68,0.0,2.7,78,0.00,,CLR,0.00,VWS V14.00,2013-01-23 05:31:00,
2013-01-22 21:32:00,34.9,28.7,29.91,ENE,68,0.0,2.7,78,0.00,,SCT120,0.00,VWS V14.00,2013-01-23 05:32:00,
2013-01-22 21:33:00,34.9,28.7,29.91,ENE,68,0.0,2.7,78,0.00,,SCT120,0.00,VWS V14.00,2013-01-23 05:33:00,
2013-01-22 21:36:00,34.9,28.7,29.91,ENE,68,0.0,2.7,78,0.00,,SCT120,0.00,VWS V14.00,2013-01-23 05:36:00,
2013-01-22 21:37:00,34.9,28.7,29.91,ENE,68,0.0,2.7,78,0.00,,SCT120,0.00,VWS V14.00,2013-01-23 05:37:00,
2013-01-22 21:38:00,34.9,29.0,29.91,ENE,68,0.0,2.7,79,0.00,,SCT120,0.00,VWS V14.00,2013-01-23 05:38:00,
2013-01-22 21:42:00,34.7,28.9,29.91,NW,315,2.5,2.7,79,0.00,,SCT120,0.00,VWS V14.00,2013-01-23 05:42:00,
2013-01-22 21:43:00,34.7,28.9,29.91,East,90,0.0,2.5,79,0.00,,SCT120,0.00,VWS V14.00,2013-01-23 05:43:00,
2013-01-22 21:47:00,34.9,28.7,29.91,East,90,2.9,3.1,78,0.00,,SCT120,0.00,VWS V14.00,2013-01-23 05:47:00,
2013-01-22 21:48:00,34.9,28.7,29.91,East,90,0.0,3.1,78,0.00,,BKN120,0.00,VWS V14.00,2013-01-23 05:48:00,
2013-01-22 21:52:00,34.9,28.7,29.91,ENE,68,0.0,3.1,78,0.00,,BKN120,0.00,VWS V14.00,2013-01-23 05:52:00,
2013-01-22 21:53:00,34.9,28.7,29.91,West,270,0.0,3.1,78,0.00,,BKN120,0.00,VWS V14.00,2013-01-23 05:53:00,
2013-01-22 21:57:00,34.9,28.7,29.91,ESE,112,2.5,3.1,78,0.00,,BKN120,0.00,VWS V14.00,2013-01-23 05:57:00,
2013-01-22 21:58:00,34.9,28.7,29.91,ESE,112,2.5,3.1,78,0.00,,BKN120,0.00,VWS V14.00,2013-01-23 05:58:00,
2013-01-22 22:03:00,34.9,28.4,29.91,East,90,0.0,3.1,77,0.00,,BKN120,0.00,VWS V14.00,2013-01-23 06:03:00,
2013-01-22 22:08:00,34.9,28.4,29.91,North,0,0.0,2.5,77,0.00,,BKN120,0.00,VWS V14.00,2013-01-23 06:08:00,
2013-01-22 22:13:00,34.9,28.4,29.91,North,0,0.0,2.5,77,0.00,,BKN120,0.00,VWS V14.00,2013-01-23 06:13:00,
2013-01-22 22:14:00,34.9,28.4,29.91,North,0,0.0,2.5,77,0.00,,BKN120,0.00,VWS V14.00,2013-01-23 06:14:00,
2013-01-22 22:18:00,34.7,28.5,29.91,ESE,112,0.0,0.0,78,0.00,,BKN120,0.00,VWS V14.00,2013-01-23 06:18:00,
2013-01-22 22:19:00,34.7,28.5,29.91,ESE,112,0.0,0.0,78,0.00,,BKN120,0.00,VWS V14.00,2013-01-23 06:19:00,
2013-01-22 22:23:00,34.7,28.5,29.94,ESE,112,0.0,0.0,78,0.00,,BKN120,0.00,VWS V14.00,2013-01-23 06:23:00,
2013-01-22 22:24:00,34.7,28.5,29.94,ESE,112,0.0,0.0,78,0.00,,BKN120,0.00,VWS V14.00,2013-01-23 06:24:00,
2013-01-22 22:28:00,34.7,28.5,29.94,ENE,68,0.0,0.0,78,0.00,,BKN120,0.00,VWS V14.00,2013-01-23 06:28:00,
2013-01-22 22:29:00,34.7,28.5,29.94,ENE,68,0.0,0.0,78,0.00,,BKN120,0.00,VWS V14.00,2013-01-23 06:29:00,
2013-01-22 22:33:00,34.7,28.5,29.94,ESE,112,0.0,0.0,78,0.00,,SCT120,0.00,VWS V14.00,2013-01-23 06:33:00,
2013-01-22 22:34:00,34.7,28.5,29.94,ESE,112,0.0,0.0,78,0.00,,SCT120,0.00,VWS V14.00,2013-01-23 06:34:00,
2013-01-22 22:38:00,34.5,28.7,29.91,ESE,112,0.0,0.0,79,0.00,,BKN120,0.00,VWS V14.00,2013-01-23 06:38:00,
2013-01-22 22:39:00,34.5,28.7,29.91,ESE,112,0.0,0.0,79,0.00,,BKN120,0.00,VWS V14.00,2013-01-23 06:39:00,
2013-01-22 22:43:00,34.5,28.7,29.91,ESE,112,0.0,0.0,79,0.00,,BKN120,0.00,VWS V14.00,2013-01-23 06:43:00,
2013-01-22 22:44:00,34.5,28.7,29.91,ESE,112,0.0,0.0,79,0.00,,BKN120,0.00,VWS V14.00,2013-01-23 06:44:00,
2013-01-22 22:48:00,34.5,29.0,29.91,ESE,112,0.0,0.0,80,0.00,,BKN120,0.00,VWS V14.00,2013-01-23 06:48:00,
2013-01-22 22:49:00,34.5,28.7,29.91,ESE,112,0.0,0.0,79,0.00,,BKN120,0.00,VWS V14.00,2013-01-23 06:49:00,
2013-01-22 22:50:00,34.5,28.7,29.91,ESE,112,0.0,0.0,79,0.00,,BKN120,0.00,VWS V14.00,2013-01-23 06:50:00,
2013-01-22 22:53:00,34.5,28.7,29.94,East,90,0.0,0.0,79,0.00,,BKN120,0.00,VWS V14.00,2013-01-23 06:53:00,
2013-01-22 22:54:00,34.5,28.7,29.94,East,90,0.0,0.0,79,0.00,,BKN120,0.00,VWS V14.00,2013-01-23 06:54:00,
2013-01-22 22:55:00,34.5,28.7,29.94,East,90,0.0,0.0,79,0.00,,BKN120,0.00,VWS V14.00,2013-01-23 06:55:00,
2013-01-22 22:58:00,34.5,29.0,29.94,East,90,0.0,0.0,80,0.00,,BKN120,0.00,VWS V14.00,2013-01-23 06:58:00,
2013-01-22 22:59:00,34.5,29.0,29.94,East,90,0.0,0.0,80,0.00,,BKN120,0.00,VWS V14.00,2013-01-23 06:59:00,
2013-01-22 23:00:00,34.5,29.0,29.94,East,90,0.0,0.0,80,0.00,,BKN120,0.00,VWS V14.00,2013-01-23 07:00:00,
2013-01-22 23:03:00,34.5,29.0,29.94,East,90,0.0,0.0,80,0.00,,BKN120,0.00,VWS V14.00,2013-01-23 07:03:00,
2013-01-22 23:04:00,34.5,29.0,29.94,East,90,0.0,0.0,80,0.00,,BKN120,0.00,VWS V14.00,2013-01-23 07:04:00,
2013-01-22 23:05:00,34.5,29.0,29.94,NNW,338,0.9,0.9,80,0.00,,BKN120,0.00,VWS V14.00,2013-01-23 07:05:00,
2013-01-22 23:08:00,34.5,29.0,29.94,NW,315,0.0,0.9,80,0.00,,BKN120,0.00,VWS V14.00,2013-01-23 07:08:00,
2013-01-22 23:09:00,34.5,29.0,29.94,NW,315,0.0,0.9,80,0.00,,BKN120,0.00,VWS V14.00,2013-01-23 07:09:00,
2013-01-22 23:10:00,34.5,29.0,29.94,NW,315,0.0,0.9,80,0.00,,BKN120,0.00,VWS V14.00,2013-01-23 07:10:00,
2013-01-22 23:13:00,34.5,29.0,29.94,NW,315,0.0,0.9,80,0.00,,BKN120,0.00,VWS V14.00,2013-01-23 07:13:00,
2013-01-22 23:14:00,34.5,29.0,29.94,NW,315,0.0,0.9,80,0.00,,BKN120,0.00,VWS V14.00,2013-01-23 07:14:00,
2013-01-22 23:15:00,34.5,29.0,29.94,NW,315,0.0,0.9,80,0.00,,BKN120,0.00,VWS V14.00,2013-01-23 07:15:00,
2013-01-22 23:18:00,34.5,29.0,29.94,NW,315,0.0,0.9,80,0.00,,BKN120,0.00,VWS V14.00,2013-01-23 07:18:00,
2013-01-22 23:19:00,34.5,29.0,29.94,NW,315,0.0,0.9,80,0.00,,BKN120,0.00,VWS V14.00,2013-01-23 07:19:00,
2013-01-22 23:20:00,34.5,29.0,29.94,NW,315,0.0,0.9,80,0.00,,BKN120,0.00,VWS V14.00,2013-01-23 07:20:00,
2013-01-22 23:23:00,34.5,29.0,29.94,NW,315,0.0,0.0,80,0.00,,BKN120,0.00,VWS V14.00,2013-01-23 07:23:00,
2013-01-22 23:24:00,34.5,29.0,29.94,NW,315,0.0,0.0,80,0.00,,BKN120,0.00,VWS V14.00,2013-01-23 07:24:00,
2013-01-22 23:25:00,34.5,29.0,29.94,NW,315,0.0,0.0,80,0.00,,BKN120,0.00,VWS V14.00,2013-01-23 07:25:00,
2013-01-22 23:28:00,34.3,28.8,29.94,NE,45,0.0,0.0,80,0.00,,BKN120,0.00,VWS V14.00,2013-01-23 07:28:00,
2013-01-22 23:29:00,34.3,28.8,29.94,NE,45,0.0,0.0,80,0.00,,BKN120,0.00,VWS V14.00,2013-01-23 07:29:00,
2013-01-22 23:30:00,34.3,28.8,29.94,NE,45,0.0,0.0,80,0.00,,BKN120,0.00,VWS V14.00,2013-01-23 07:30:00,
2013-01-22 23:33:00,34.3,28.8,29.94,NE,45,0.0,0.0,80,0.00,,BKN120,0.00,VWS V14.00,2013-01-23 07:33:00,
2013-01-22 23:34:00,34.3,28.8,29.94,NE,45,0.0,0.0,80,0.00,,BKN120,0.00,VWS V14.00,2013-01-23 07:34:00,
2013-01-22 23:35:00,34.3,28.8,29.94,NE,45,0.0,0.0,80,0.00,,BKN120,0.00,VWS V14.00,2013-01-23 07:35:00,
2013-01-22 23:39:00,34.3,29.1,29.91,ESE,112,6.0,6.0,81,0.00,,BKN120,0.00,VWS V14.00,2013-01-23 07:39:00,
2013-01-22 23:40:00,34.2,29.0,29.91,ESE,112,0.0,6.0,81,0.00,,BKN120,0.00,VWS V14.00,2013-01-23 07:40:00,
2013-01-22 23:44:00,34.2,29.0,29.91,WNW,292,2.7,6.0,81,0.00,,BKN120,0.00,VWS V14.00,2013-01-23 07:44:00,
2013-01-22 23:45:00,34.2,29.0,29.91,WNW,292,0.0,6.0,81,0.00,,BKN120,0.00,VWS V14.00,2013-01-23 07:45:00,
2013-01-22 23:48:00,34.3,29.1,29.91,SE,135,5.4,6.0,81,0.00,,OVC120,0.00,VWS V14.00,2013-01-23 07:48:00,
2013-01-22 23:49:00,34.3,29.1,29.91,WSW,248,0.0,6.0,81,0.00,,OVC120,0.00,VWS V14.00,2013-01-23 07:49:00,
2013-01-22 23:50:00,34.3,29.1,29.91,WSW,248,0.0,6.0,81,0.00,,OVC120,0.00,VWS V14.00,2013-01-23 07:50:00,
2013-01-22 23:54:00,34.5,29.0,29.94,SSE,158,0.0,6.0,80,0.00,,OVC120,0.00,VWS V14.00,2013-01-23 07:54:00,
2013-01-22 23:55:00,34.5,29.0,29.94,North,0,0.0,6.0,80,0.00,,OVC120,0.00,VWS V14.00,2013-01-23 07:55:00,
2013-01-22 23:59:00,34.3,28.8,29.94,North,0,0.9,5.4,80,0.00,,OVC120,0.00,VWS V14.00,2013-01-23 07:59:00,